<?xml version="1.0" encoding="UTF-8" standalone="no" ?>
<gpx xmlns="http://www.topografix.com/GPX/1/1" xmlns:xsi="http://www.w3.org/2001/XMLSchema-instance" xsi:schemaLocation="http://www.topografix.com/GPX/1/1 http://www.topografix.com/GPX/1/1/gpx.xsd" version="1.1" creator="VisuGPX - https://www.visugpx.com">
  <metadata>
    <name>2025-09-25 Acc_Sucé_14.7km</name>
    <desc><![CDATA[ACC mardi 23/09/25 14,7km]]></desc>
  </metadata>
  <wpt lat="47.30567" lon="-1.5587">
    <ele>30</ele>
    <name><![CDATA[0002049]]></name>
  </wpt>
  <wpt lat="47.30512" lon="-1.55794">
    <ele>30</ele>
    <name><![CDATA[0002050]]></name>
    <desc><![CDATA[<p><br /><h3>Nom: Segment: 1</h3><br />Heure de départ: 08:30 23 sept. 2025<br/>Heure d'arrivée: 11:41 23 sept. 2025<br/>Distance: 14,9km (03:10)<br/>Temps déplacement: 02:53<br/>Vitesse moyenne: 4,69 km/h<br/>Vitesse moyenne mouv.: 5,14 km/h<br/>Vitesse Max.: 12,82 km/h<br/>Altitude minimale: 3 m<br/>Altitude maximale: 33 m<br/>Vitesse de montée: 142 m/h<br/>Vitesse de descente: -172,2 m/h<br/>Gain d'altitude: 201 m<br/>Perte d'altitude: -201 m<br/>Temps de montée: 01:25<br/>Temps de descente: 01:10<br/></p>]]></desc>
  </wpt>
  <trk>
    <name><![CDATA[2025-09-23 08:30]]></name>
    <desc><![CDATA[<p>Heure de départ: 08:30 23 sept. 2025<br/>Heure d'arrivée: 11:41 23 sept. 2025<br/>Distance: 14,9 km (03:10)<br/>Temps déplacement: 02:53<br/>Vitesse moyenne: 4,69 km/h<br/>Vitesse moyenne mouv.: 5,15 km/h<br/>Vitesse Max.: 12,82 km/h<br/>Altitude minimale: 3 m<br/>Altitude maximale: 33 m<br/>Vitesse de montée: 119,1 m/h<br/>Vitesse de descente: -128,6 m/h<br/>Gain d'altitude: 182 m<br/>Perte d'altitude: -183 m<br/>Temps de montée: 01:31<br/>Temps de descente: 01:25<br/></p><hr align="center" width="480" style="height: 2px; width: 517px"/>]]></desc>
    <extensions>
      <line xmlns="http://www.topografix.com/GPX/gpx_style/0/2">
        <color>0000FF</color>
        <width>4</width>
      </line>
    </extensions>
    <trkseg>
      <trkpt lat="47.30567" lon="-1.5587">
        <ele>30</ele>
        <time>2025-09-23T06:30:27Z</time>
      </trkpt>
      <trkpt lat="47.30586" lon="-1.55866">
        <ele>31.82</ele>
        <time>2025-09-23T06:30:55Z</time>
      </trkpt>
      <trkpt lat="47.30604" lon="-1.55852">
        <ele>32</ele>
        <time>2025-09-23T06:31:11Z</time>
      </trkpt>
      <trkpt lat="47.30622" lon="-1.55834">
        <ele>32</ele>
        <time>2025-09-23T06:31:27Z</time>
      </trkpt>
      <trkpt lat="47.30624" lon="-1.55806">
        <ele>32</ele>
        <time>2025-09-23T06:31:43Z</time>
      </trkpt>
      <trkpt lat="47.30621" lon="-1.55776">
        <ele>32</ele>
        <time>2025-09-23T06:31:59Z</time>
      </trkpt>
      <trkpt lat="47.30643" lon="-1.55779">
        <ele>32</ele>
        <time>2025-09-23T06:32:23Z</time>
      </trkpt>
      <trkpt lat="47.30665" lon="-1.55785">
        <ele>32</ele>
        <time>2025-09-23T06:32:39Z</time>
      </trkpt>
      <trkpt lat="47.30687" lon="-1.55791">
        <ele>32</ele>
        <time>2025-09-23T06:32:55Z</time>
      </trkpt>
      <trkpt lat="47.30706" lon="-1.55803">
        <ele>32</ele>
        <time>2025-09-23T06:33:15Z</time>
      </trkpt>
      <trkpt lat="47.30725" lon="-1.55817">
        <ele>32</ele>
        <time>2025-09-23T06:33:35Z</time>
      </trkpt>
      <trkpt lat="47.30746" lon="-1.55822">
        <ele>32</ele>
        <time>2025-09-23T06:33:51Z</time>
      </trkpt>
      <trkpt lat="47.30757" lon="-1.55796">
        <ele>32</ele>
        <time>2025-09-23T06:34:11Z</time>
      </trkpt>
      <trkpt lat="47.30758" lon="-1.55767">
        <ele>32</ele>
        <time>2025-09-23T06:34:31Z</time>
      </trkpt>
      <trkpt lat="47.30758" lon="-1.55735">
        <ele>32</ele>
        <time>2025-09-23T06:34:47Z</time>
      </trkpt>
      <trkpt lat="47.30758" lon="-1.55702">
        <ele>32</ele>
        <time>2025-09-23T06:35:03Z</time>
      </trkpt>
      <trkpt lat="47.30759" lon="-1.5567">
        <ele>32</ele>
        <time>2025-09-23T06:35:19Z</time>
      </trkpt>
      <trkpt lat="47.30759" lon="-1.55636">
        <ele>31.01</ele>
        <time>2025-09-23T06:35:35Z</time>
      </trkpt>
      <trkpt lat="47.30762" lon="-1.55606">
        <ele>31</ele>
        <time>2025-09-23T06:35:51Z</time>
      </trkpt>
      <trkpt lat="47.30766" lon="-1.55573">
        <ele>30.09</ele>
        <time>2025-09-23T06:36:07Z</time>
      </trkpt>
      <trkpt lat="47.30766" lon="-1.55542">
        <ele>30</ele>
        <time>2025-09-23T06:36:23Z</time>
      </trkpt>
      <trkpt lat="47.30767" lon="-1.55513">
        <ele>30</ele>
        <time>2025-09-23T06:36:35Z</time>
      </trkpt>
      <trkpt lat="47.30772" lon="-1.55479">
        <ele>29.03</ele>
        <time>2025-09-23T06:36:51Z</time>
      </trkpt>
      <trkpt lat="47.30765" lon="-1.55449">
        <ele>29</ele>
        <time>2025-09-23T06:37:04Z</time>
      </trkpt>
      <trkpt lat="47.3076" lon="-1.55414">
        <ele>29.7</ele>
        <time>2025-09-23T06:37:16Z</time>
      </trkpt>
      <trkpt lat="47.30758" lon="-1.55387">
        <ele>29.99</ele>
        <time>2025-09-23T06:37:28Z</time>
      </trkpt>
      <trkpt lat="47.30777" lon="-1.5536">
        <ele>30</ele>
        <time>2025-09-23T06:37:45Z</time>
      </trkpt>
      <trkpt lat="47.30786" lon="-1.55334">
        <ele>30</ele>
        <time>2025-09-23T06:37:58Z</time>
      </trkpt>
      <trkpt lat="47.30787" lon="-1.55304">
        <ele>30</ele>
        <time>2025-09-23T06:38:14Z</time>
      </trkpt>
      <trkpt lat="47.30787" lon="-1.55275">
        <ele>30</ele>
        <time>2025-09-23T06:38:26Z</time>
      </trkpt>
      <trkpt lat="47.30783" lon="-1.55247">
        <ele>30.7</ele>
        <time>2025-09-23T06:38:42Z</time>
      </trkpt>
      <trkpt lat="47.30782" lon="-1.55214">
        <ele>31</ele>
        <time>2025-09-23T06:38:58Z</time>
      </trkpt>
      <trkpt lat="47.30782" lon="-1.55186">
        <ele>31</ele>
        <time>2025-09-23T06:39:14Z</time>
      </trkpt>
      <trkpt lat="47.30781" lon="-1.55157">
        <ele>30.09</ele>
        <time>2025-09-23T06:39:34Z</time>
      </trkpt>
      <trkpt lat="47.30779" lon="-1.5513">
        <ele>30</ele>
        <time>2025-09-23T06:39:46Z</time>
      </trkpt>
      <trkpt lat="47.30777" lon="-1.55101">
        <ele>30</ele>
        <time>2025-09-23T06:40:02Z</time>
      </trkpt>
      <trkpt lat="47.30773" lon="-1.55071">
        <ele>28.18</ele>
        <time>2025-09-23T06:40:18Z</time>
      </trkpt>
      <trkpt lat="47.3077" lon="-1.55043">
        <ele>28</ele>
        <time>2025-09-23T06:40:30Z</time>
      </trkpt>
      <trkpt lat="47.30771" lon="-1.55015">
        <ele>28</ele>
        <time>2025-09-23T06:40:42Z</time>
      </trkpt>
      <trkpt lat="47.30768" lon="-1.5498">
        <ele>28.97</ele>
        <time>2025-09-23T06:40:58Z</time>
      </trkpt>
      <trkpt lat="47.30764" lon="-1.54948">
        <ele>29</ele>
        <time>2025-09-23T06:41:14Z</time>
      </trkpt>
      <trkpt lat="47.3076" lon="-1.54915">
        <ele>30.4</ele>
        <time>2025-09-23T06:41:30Z</time>
      </trkpt>
      <trkpt lat="47.30757" lon="-1.54885">
        <ele>31</ele>
        <time>2025-09-23T06:41:46Z</time>
      </trkpt>
      <trkpt lat="47.30755" lon="-1.54854">
        <ele>31</ele>
        <time>2025-09-23T06:42:02Z</time>
      </trkpt>
      <trkpt lat="47.30752" lon="-1.5482">
        <ele>27.36</ele>
        <time>2025-09-23T06:42:18Z</time>
      </trkpt>
      <trkpt lat="47.30748" lon="-1.54787">
        <ele>31.9</ele>
        <time>2025-09-23T06:42:34Z</time>
      </trkpt>
      <trkpt lat="47.30744" lon="-1.54759">
        <ele>33.98</ele>
        <time>2025-09-23T06:42:50Z</time>
      </trkpt>
      <trkpt lat="47.3074" lon="-1.54728">
        <ele>32.02</ele>
        <time>2025-09-23T06:43:06Z</time>
      </trkpt>
      <trkpt lat="47.30734" lon="-1.54696">
        <ele>32</ele>
        <time>2025-09-23T06:43:22Z</time>
      </trkpt>
      <trkpt lat="47.3073" lon="-1.54666">
        <ele>30.6</ele>
        <time>2025-09-23T06:43:38Z</time>
      </trkpt>
      <trkpt lat="47.30724" lon="-1.5464">
        <ele>30</ele>
        <time>2025-09-23T06:43:58Z</time>
      </trkpt>
      <trkpt lat="47.3072" lon="-1.54614">
        <ele>30</ele>
        <time>2025-09-23T06:44:10Z</time>
      </trkpt>
      <trkpt lat="47.30719" lon="-1.54581">
        <ele>28.6</ele>
        <time>2025-09-23T06:44:26Z</time>
      </trkpt>
      <trkpt lat="47.30719" lon="-1.54554">
        <ele>28</ele>
        <time>2025-09-23T06:44:42Z</time>
      </trkpt>
      <trkpt lat="47.30723" lon="-1.54526">
        <ele>28</ele>
        <time>2025-09-23T06:44:54Z</time>
      </trkpt>
      <trkpt lat="47.30729" lon="-1.54501">
        <ele>28</ele>
        <time>2025-09-23T06:45:06Z</time>
      </trkpt>
      <trkpt lat="47.30734" lon="-1.54466">
        <ele>26.02</ele>
        <time>2025-09-23T06:45:22Z</time>
      </trkpt>
      <trkpt lat="47.30741" lon="-1.54436">
        <ele>26</ele>
        <time>2025-09-23T06:45:38Z</time>
      </trkpt>
      <trkpt lat="47.30753" lon="-1.54411">
        <ele>21.8</ele>
        <time>2025-09-23T06:45:54Z</time>
      </trkpt>
      <trkpt lat="47.30762" lon="-1.54384">
        <ele>20.01</ele>
        <time>2025-09-23T06:46:10Z</time>
      </trkpt>
      <trkpt lat="47.30765" lon="-1.54349">
        <ele>20</ele>
        <time>2025-09-23T06:46:26Z</time>
      </trkpt>
      <trkpt lat="47.30767" lon="-1.54318">
        <ele>18.05</ele>
        <time>2025-09-23T06:46:42Z</time>
      </trkpt>
      <trkpt lat="47.30782" lon="-1.54303">
        <ele>18</ele>
        <time>2025-09-23T06:47:02Z</time>
      </trkpt>
      <trkpt lat="47.30802" lon="-1.543">
        <ele>18</ele>
        <time>2025-09-23T06:47:14Z</time>
      </trkpt>
      <trkpt lat="47.30823" lon="-1.54294">
        <ele>18</ele>
        <time>2025-09-23T06:47:30Z</time>
      </trkpt>
      <trkpt lat="47.3084" lon="-1.54283">
        <ele>15.27</ele>
        <time>2025-09-23T06:47:46Z</time>
      </trkpt>
      <trkpt lat="47.30861" lon="-1.54268">
        <ele>15</ele>
        <time>2025-09-23T06:48:02Z</time>
      </trkpt>
      <trkpt lat="47.30882" lon="-1.54266">
        <ele>15</ele>
        <time>2025-09-23T06:48:18Z</time>
      </trkpt>
      <trkpt lat="47.30906" lon="-1.54271">
        <ele>15</ele>
        <time>2025-09-23T06:48:34Z</time>
      </trkpt>
      <trkpt lat="47.30929" lon="-1.54271">
        <ele>14.09</ele>
        <time>2025-09-23T06:48:50Z</time>
      </trkpt>
      <trkpt lat="47.30947" lon="-1.54279">
        <ele>14</ele>
        <time>2025-09-23T06:49:02Z</time>
      </trkpt>
      <trkpt lat="47.30969" lon="-1.54289">
        <ele>14</ele>
        <time>2025-09-23T06:49:18Z</time>
      </trkpt>
      <trkpt lat="47.30988" lon="-1.54285">
        <ele>14</ele>
        <time>2025-09-23T06:49:34Z</time>
      </trkpt>
      <trkpt lat="47.31011" lon="-1.54281">
        <ele>13.09</ele>
        <time>2025-09-23T06:49:50Z</time>
      </trkpt>
      <trkpt lat="47.3103" lon="-1.54278">
        <ele>13</ele>
        <time>2025-09-23T06:50:06Z</time>
      </trkpt>
      <trkpt lat="47.31051" lon="-1.54276">
        <ele>13</ele>
        <time>2025-09-23T06:50:22Z</time>
      </trkpt>
      <trkpt lat="47.31073" lon="-1.54279">
        <ele>13</ele>
        <time>2025-09-23T06:50:38Z</time>
      </trkpt>
      <trkpt lat="47.31096" lon="-1.54283">
        <ele>11.05</ele>
        <time>2025-09-23T06:50:54Z</time>
      </trkpt>
      <trkpt lat="47.31119" lon="-1.54285">
        <ele>11</ele>
        <time>2025-09-23T06:51:10Z</time>
      </trkpt>
      <trkpt lat="47.3114" lon="-1.54284">
        <ele>11</ele>
        <time>2025-09-23T06:51:26Z</time>
      </trkpt>
      <trkpt lat="47.31159" lon="-1.54285">
        <ele>11</ele>
        <time>2025-09-23T06:51:38Z</time>
      </trkpt>
      <trkpt lat="47.31182" lon="-1.54289">
        <ele>7.11</ele>
        <time>2025-09-23T06:51:54Z</time>
      </trkpt>
      <trkpt lat="47.31205" lon="-1.54295">
        <ele>7</ele>
        <time>2025-09-23T06:52:10Z</time>
      </trkpt>
      <trkpt lat="47.31225" lon="-1.54313">
        <ele>7</ele>
        <time>2025-09-23T06:52:26Z</time>
      </trkpt>
      <trkpt lat="47.31245" lon="-1.5431">
        <ele>7</ele>
        <time>2025-09-23T06:52:46Z</time>
      </trkpt>
      <trkpt lat="47.31261" lon="-1.54298">
        <ele>8.95</ele>
        <time>2025-09-23T06:53:02Z</time>
      </trkpt>
      <trkpt lat="47.31285" lon="-1.54295">
        <ele>9</ele>
        <time>2025-09-23T06:53:18Z</time>
      </trkpt>
      <trkpt lat="47.31307" lon="-1.54295">
        <ele>9</ele>
        <time>2025-09-23T06:53:34Z</time>
      </trkpt>
      <trkpt lat="47.31329" lon="-1.54298">
        <ele>9</ele>
        <time>2025-09-23T06:53:50Z</time>
      </trkpt>
      <trkpt lat="47.3135" lon="-1.54306">
        <ele>8.01</ele>
        <time>2025-09-23T06:54:06Z</time>
      </trkpt>
      <trkpt lat="47.3137" lon="-1.54311">
        <ele>8</ele>
        <time>2025-09-23T06:54:22Z</time>
      </trkpt>
      <trkpt lat="47.31389" lon="-1.54316">
        <ele>8</ele>
        <time>2025-09-23T06:54:38Z</time>
      </trkpt>
      <trkpt lat="47.31413" lon="-1.54315">
        <ele>8</ele>
        <time>2025-09-23T06:54:54Z</time>
      </trkpt>
      <trkpt lat="47.31436" lon="-1.54316">
        <ele>6.02</ele>
        <time>2025-09-23T06:55:10Z</time>
      </trkpt>
      <trkpt lat="47.31456" lon="-1.54325">
        <ele>6</ele>
        <time>2025-09-23T06:55:26Z</time>
      </trkpt>
      <trkpt lat="47.31477" lon="-1.54326">
        <ele>6</ele>
        <time>2025-09-23T06:55:42Z</time>
      </trkpt>
      <trkpt lat="47.31499" lon="-1.5433">
        <ele>6</ele>
        <time>2025-09-23T06:55:58Z</time>
      </trkpt>
      <trkpt lat="47.31521" lon="-1.54322">
        <ele>7.98</ele>
        <time>2025-09-23T06:56:14Z</time>
      </trkpt>
      <trkpt lat="47.31539" lon="-1.54321">
        <ele>8</ele>
        <time>2025-09-23T06:56:26Z</time>
      </trkpt>
      <trkpt lat="47.31563" lon="-1.54321">
        <ele>8</ele>
        <time>2025-09-23T06:56:42Z</time>
      </trkpt>
      <trkpt lat="47.31584" lon="-1.5432">
        <ele>12.2</ele>
        <time>2025-09-23T06:56:58Z</time>
      </trkpt>
      <trkpt lat="47.31605" lon="-1.54323">
        <ele>13.99</ele>
        <time>2025-09-23T06:57:14Z</time>
      </trkpt>
      <trkpt lat="47.31625" lon="-1.54314">
        <ele>14</ele>
        <time>2025-09-23T06:57:30Z</time>
      </trkpt>
      <trkpt lat="47.31638" lon="-1.54293">
        <ele>14</ele>
        <time>2025-09-23T06:57:46Z</time>
      </trkpt>
      <trkpt lat="47.31657" lon="-1.54275">
        <ele>14</ele>
        <time>2025-09-23T06:58:02Z</time>
      </trkpt>
      <trkpt lat="47.31677" lon="-1.54263">
        <ele>15.95</ele>
        <time>2025-09-23T06:58:18Z</time>
      </trkpt>
      <trkpt lat="47.31696" lon="-1.54248">
        <ele>11.1</ele>
        <time>2025-09-23T06:58:34Z</time>
      </trkpt>
      <trkpt lat="47.31714" lon="-1.54229">
        <ele>9.02</ele>
        <time>2025-09-23T06:58:50Z</time>
      </trkpt>
      <trkpt lat="47.31731" lon="-1.54212">
        <ele>9</ele>
        <time>2025-09-23T06:59:06Z</time>
      </trkpt>
      <trkpt lat="47.31748" lon="-1.54191">
        <ele>9</ele>
        <time>2025-09-23T06:59:22Z</time>
      </trkpt>
      <trkpt lat="47.31763" lon="-1.54171">
        <ele>9.99</ele>
        <time>2025-09-23T06:59:38Z</time>
      </trkpt>
      <trkpt lat="47.31778" lon="-1.54146">
        <ele>8.02</ele>
        <time>2025-09-23T06:59:54Z</time>
      </trkpt>
      <trkpt lat="47.31791" lon="-1.54119">
        <ele>8</ele>
        <time>2025-09-23T07:00:10Z</time>
      </trkpt>
      <trkpt lat="47.31806" lon="-1.54096">
        <ele>8</ele>
        <time>2025-09-23T07:00:26Z</time>
      </trkpt>
      <trkpt lat="47.31819" lon="-1.5407">
        <ele>9.82</ele>
        <time>2025-09-23T07:00:42Z</time>
      </trkpt>
      <trkpt lat="47.31832" lon="-1.54042">
        <ele>10</ele>
        <time>2025-09-23T07:00:58Z</time>
      </trkpt>
      <trkpt lat="47.31845" lon="-1.54017">
        <ele>5.04</ele>
        <time>2025-09-23T07:01:14Z</time>
      </trkpt>
      <trkpt lat="47.31858" lon="-1.53993">
        <ele>5.91</ele>
        <time>2025-09-23T07:01:30Z</time>
      </trkpt>
      <trkpt lat="47.31871" lon="-1.53965">
        <ele>6</ele>
        <time>2025-09-23T07:01:46Z</time>
      </trkpt>
      <trkpt lat="47.31884" lon="-1.5394">
        <ele>6</ele>
        <time>2025-09-23T07:02:02Z</time>
      </trkpt>
      <trkpt lat="47.31896" lon="-1.53915">
        <ele>7.4</ele>
        <time>2025-09-23T07:02:18Z</time>
      </trkpt>
      <trkpt lat="47.31911" lon="-1.53888">
        <ele>8</ele>
        <time>2025-09-23T07:02:34Z</time>
      </trkpt>
      <trkpt lat="47.31921" lon="-1.53865">
        <ele>5.27</ele>
        <time>2025-09-23T07:02:46Z</time>
      </trkpt>
      <trkpt lat="47.31937" lon="-1.53842">
        <ele>5</ele>
        <time>2025-09-23T07:03:02Z</time>
      </trkpt>
      <trkpt lat="47.31949" lon="-1.53816">
        <ele>5.97</ele>
        <time>2025-09-23T07:03:18Z</time>
      </trkpt>
      <trkpt lat="47.3196" lon="-1.53788">
        <ele>6</ele>
        <time>2025-09-23T07:03:34Z</time>
      </trkpt>
      <trkpt lat="47.31972" lon="-1.53768">
        <ele>6</ele>
        <time>2025-09-23T07:03:46Z</time>
      </trkpt>
      <trkpt lat="47.3199" lon="-1.53752">
        <ele>6</ele>
        <time>2025-09-23T07:04:02Z</time>
      </trkpt>
      <trkpt lat="47.32006" lon="-1.53731">
        <ele>7.32</ele>
        <time>2025-09-23T07:04:18Z</time>
      </trkpt>
      <trkpt lat="47.32025" lon="-1.53715">
        <ele>7</ele>
        <time>2025-09-23T07:04:34Z</time>
      </trkpt>
      <trkpt lat="47.3204" lon="-1.53698">
        <ele>7</ele>
        <time>2025-09-23T07:04:46Z</time>
      </trkpt>
      <trkpt lat="47.32054" lon="-1.53676">
        <ele>7</ele>
        <time>2025-09-23T07:05:02Z</time>
      </trkpt>
      <trkpt lat="47.32059" lon="-1.53646">
        <ele>12.84</ele>
        <time>2025-09-23T07:05:18Z</time>
      </trkpt>
      <trkpt lat="47.32065" lon="-1.53619">
        <ele>13</ele>
        <time>2025-09-23T07:05:30Z</time>
      </trkpt>
      <trkpt lat="47.32082" lon="-1.53599">
        <ele>13</ele>
        <time>2025-09-23T07:05:46Z</time>
      </trkpt>
      <trkpt lat="47.32098" lon="-1.53585">
        <ele>13</ele>
        <time>2025-09-23T07:05:58Z</time>
      </trkpt>
      <trkpt lat="47.32116" lon="-1.53581">
        <ele>14.95</ele>
        <time>2025-09-23T07:06:10Z</time>
      </trkpt>
      <trkpt lat="47.32138" lon="-1.53579">
        <ele>15</ele>
        <time>2025-09-23T07:06:26Z</time>
      </trkpt>
      <trkpt lat="47.32156" lon="-1.53579">
        <ele>15</ele>
        <time>2025-09-23T07:06:38Z</time>
      </trkpt>
      <trkpt lat="47.3218" lon="-1.53578">
        <ele>14.03</ele>
        <time>2025-09-23T07:06:54Z</time>
      </trkpt>
      <trkpt lat="47.322" lon="-1.53576">
        <ele>14</ele>
        <time>2025-09-23T07:07:10Z</time>
      </trkpt>
      <trkpt lat="47.32223" lon="-1.53575">
        <ele>14</ele>
        <time>2025-09-23T07:07:26Z</time>
      </trkpt>
      <trkpt lat="47.32242" lon="-1.53572">
        <ele>14</ele>
        <time>2025-09-23T07:07:42Z</time>
      </trkpt>
      <trkpt lat="47.32246" lon="-1.53544">
        <ele>14</ele>
        <time>2025-09-23T07:07:58Z</time>
      </trkpt>
      <trkpt lat="47.32252" lon="-1.53511">
        <ele>17.64</ele>
        <time>2025-09-23T07:08:11Z</time>
      </trkpt>
      <trkpt lat="47.32271" lon="-1.53512">
        <ele>17.98</ele>
        <time>2025-09-23T07:08:31Z</time>
      </trkpt>
      <trkpt lat="47.32291" lon="-1.53522">
        <ele>18</ele>
        <time>2025-09-23T07:08:47Z</time>
      </trkpt>
      <trkpt lat="47.32312" lon="-1.53533">
        <ele>18</ele>
        <time>2025-09-23T07:09:03Z</time>
      </trkpt>
      <trkpt lat="47.32328" lon="-1.53546">
        <ele>18</ele>
        <time>2025-09-23T07:09:19Z</time>
      </trkpt>
      <trkpt lat="47.32348" lon="-1.53555">
        <ele>24.94</ele>
        <time>2025-09-23T07:09:35Z</time>
      </trkpt>
      <trkpt lat="47.32368" lon="-1.53567">
        <ele>25</ele>
        <time>2025-09-23T07:09:51Z</time>
      </trkpt>
      <trkpt lat="47.32389" lon="-1.53577">
        <ele>25</ele>
        <time>2025-09-23T07:10:07Z</time>
      </trkpt>
      <trkpt lat="47.3241" lon="-1.53587">
        <ele>24.09</ele>
        <time>2025-09-23T07:10:23Z</time>
      </trkpt>
      <trkpt lat="47.32429" lon="-1.536">
        <ele>28.87</ele>
        <time>2025-09-23T07:10:39Z</time>
      </trkpt>
      <trkpt lat="47.32451" lon="-1.53609">
        <ele>29</ele>
        <time>2025-09-23T07:10:55Z</time>
      </trkpt>
      <trkpt lat="47.3247" lon="-1.53621">
        <ele>29</ele>
        <time>2025-09-23T07:11:11Z</time>
      </trkpt>
      <trkpt lat="47.32491" lon="-1.53631">
        <ele>29</ele>
        <time>2025-09-23T07:11:27Z</time>
      </trkpt>
      <trkpt lat="47.32509" lon="-1.53642">
        <ele>29</ele>
        <time>2025-09-23T07:11:43Z</time>
      </trkpt>
      <trkpt lat="47.32532" lon="-1.53651">
        <ele>29</ele>
        <time>2025-09-23T07:11:59Z</time>
      </trkpt>
      <trkpt lat="47.32554" lon="-1.53661">
        <ele>29</ele>
        <time>2025-09-23T07:12:15Z</time>
      </trkpt>
      <trkpt lat="47.32575" lon="-1.53672">
        <ele>28.09</ele>
        <time>2025-09-23T07:12:31Z</time>
      </trkpt>
      <trkpt lat="47.32594" lon="-1.53681">
        <ele>26.05</ele>
        <time>2025-09-23T07:12:47Z</time>
      </trkpt>
      <trkpt lat="47.32616" lon="-1.53691">
        <ele>26</ele>
        <time>2025-09-23T07:13:03Z</time>
      </trkpt>
      <trkpt lat="47.32635" lon="-1.53693">
        <ele>26</ele>
        <time>2025-09-23T07:13:15Z</time>
      </trkpt>
      <trkpt lat="47.32657" lon="-1.53695">
        <ele>26</ele>
        <time>2025-09-23T07:13:31Z</time>
      </trkpt>
      <trkpt lat="47.32678" lon="-1.53696">
        <ele>22.11</ele>
        <time>2025-09-23T07:13:47Z</time>
      </trkpt>
      <trkpt lat="47.32701" lon="-1.53699">
        <ele>22</ele>
        <time>2025-09-23T07:14:03Z</time>
      </trkpt>
      <trkpt lat="47.32724" lon="-1.537">
        <ele>22</ele>
        <time>2025-09-23T07:14:19Z</time>
      </trkpt>
      <trkpt lat="47.32746" lon="-1.53694">
        <ele>22</ele>
        <time>2025-09-23T07:14:35Z</time>
      </trkpt>
      <trkpt lat="47.32764" lon="-1.53687">
        <ele>18.11</ele>
        <time>2025-09-23T07:14:47Z</time>
      </trkpt>
      <trkpt lat="47.32786" lon="-1.53683">
        <ele>18</ele>
        <time>2025-09-23T07:15:03Z</time>
      </trkpt>
      <trkpt lat="47.32807" lon="-1.5368">
        <ele>18</ele>
        <time>2025-09-23T07:15:19Z</time>
      </trkpt>
      <trkpt lat="47.3283" lon="-1.53674">
        <ele>18</ele>
        <time>2025-09-23T07:15:35Z</time>
      </trkpt>
      <trkpt lat="47.32849" lon="-1.5367">
        <ele>15.02</ele>
        <time>2025-09-23T07:15:51Z</time>
      </trkpt>
      <trkpt lat="47.32839" lon="-1.53645">
        <ele>14.01</ele>
        <time>2025-09-23T07:16:11Z</time>
      </trkpt>
      <trkpt lat="47.32827" lon="-1.53621">
        <ele>16.92</ele>
        <time>2025-09-23T07:16:27Z</time>
      </trkpt>
      <trkpt lat="47.32842" lon="-1.53601">
        <ele>14.27</ele>
        <time>2025-09-23T07:16:43Z</time>
      </trkpt>
      <trkpt lat="47.32862" lon="-1.53583">
        <ele>13.3</ele>
        <time>2025-09-23T07:16:59Z</time>
      </trkpt>
      <trkpt lat="47.32881" lon="-1.53567">
        <ele>13</ele>
        <time>2025-09-23T07:17:15Z</time>
      </trkpt>
      <trkpt lat="47.32898" lon="-1.53551">
        <ele>13</ele>
        <time>2025-09-23T07:17:31Z</time>
      </trkpt>
      <trkpt lat="47.32918" lon="-1.53545">
        <ele>12.3</ele>
        <time>2025-09-23T07:17:47Z</time>
      </trkpt>
      <trkpt lat="47.32939" lon="-1.53534">
        <ele>12</ele>
        <time>2025-09-23T07:18:03Z</time>
      </trkpt>
      <trkpt lat="47.32956" lon="-1.53524">
        <ele>12</ele>
        <time>2025-09-23T07:18:15Z</time>
      </trkpt>
      <trkpt lat="47.32974" lon="-1.53519">
        <ele>12</ele>
        <time>2025-09-23T07:18:27Z</time>
      </trkpt>
      <trkpt lat="47.32992" lon="-1.53509">
        <ele>12</ele>
        <time>2025-09-23T07:18:43Z</time>
      </trkpt>
      <trkpt lat="47.33011" lon="-1.53491">
        <ele>16.86</ele>
        <time>2025-09-23T07:18:59Z</time>
      </trkpt>
      <trkpt lat="47.33027" lon="-1.53512">
        <ele>17</ele>
        <time>2025-09-23T07:19:15Z</time>
      </trkpt>
      <trkpt lat="47.33037" lon="-1.53539">
        <ele>17</ele>
        <time>2025-09-23T07:19:31Z</time>
      </trkpt>
      <trkpt lat="47.33045" lon="-1.53566">
        <ele>17</ele>
        <time>2025-09-23T07:20:00Z</time>
      </trkpt>
      <trkpt lat="47.33056" lon="-1.53595">
        <ele>17</ele>
        <time>2025-09-23T07:20:16Z</time>
      </trkpt>
      <trkpt lat="47.33067" lon="-1.5362">
        <ele>17</ele>
        <time>2025-09-23T07:20:32Z</time>
      </trkpt>
      <trkpt lat="47.33089" lon="-1.53612">
        <ele>19.73</ele>
        <time>2025-09-23T07:20:52Z</time>
      </trkpt>
      <trkpt lat="47.3311" lon="-1.53607">
        <ele>20</ele>
        <time>2025-09-23T07:21:08Z</time>
      </trkpt>
      <trkpt lat="47.33094" lon="-1.53627">
        <ele>20</ele>
        <time>2025-09-23T07:21:40Z</time>
      </trkpt>
      <trkpt lat="47.33102" lon="-1.53657">
        <ele>20</ele>
        <time>2025-09-23T07:22:08Z</time>
      </trkpt>
      <trkpt lat="47.3312" lon="-1.53672">
        <ele>19.09</ele>
        <time>2025-09-23T07:22:24Z</time>
      </trkpt>
      <trkpt lat="47.33139" lon="-1.53692">
        <ele>19</ele>
        <time>2025-09-23T07:22:40Z</time>
      </trkpt>
      <trkpt lat="47.33158" lon="-1.53711">
        <ele>19</ele>
        <time>2025-09-23T07:22:56Z</time>
      </trkpt>
      <trkpt lat="47.33177" lon="-1.53731">
        <ele>20.95</ele>
        <time>2025-09-23T07:23:12Z</time>
      </trkpt>
      <trkpt lat="47.33192" lon="-1.53749">
        <ele>21</ele>
        <time>2025-09-23T07:23:28Z</time>
      </trkpt>
      <trkpt lat="47.33208" lon="-1.53762">
        <ele>20.01</ele>
        <time>2025-09-23T07:23:44Z</time>
      </trkpt>
      <trkpt lat="47.33225" lon="-1.53774">
        <ele>20</ele>
        <time>2025-09-23T07:23:56Z</time>
      </trkpt>
      <trkpt lat="47.33243" lon="-1.53788">
        <ele>20</ele>
        <time>2025-09-23T07:24:12Z</time>
      </trkpt>
      <trkpt lat="47.33263" lon="-1.53806">
        <ele>21.95</ele>
        <time>2025-09-23T07:24:28Z</time>
      </trkpt>
      <trkpt lat="47.33276" lon="-1.53825">
        <ele>22</ele>
        <time>2025-09-23T07:24:48Z</time>
      </trkpt>
      <trkpt lat="47.33281" lon="-1.53852">
        <ele>20.05</ele>
        <time>2025-09-23T07:25:04Z</time>
      </trkpt>
      <trkpt lat="47.33283" lon="-1.53881">
        <ele>20</ele>
        <time>2025-09-23T07:25:20Z</time>
      </trkpt>
      <trkpt lat="47.33298" lon="-1.53896">
        <ele>20</ele>
        <time>2025-09-23T07:25:56Z</time>
      </trkpt>
      <trkpt lat="47.33317" lon="-1.53889">
        <ele>20</ele>
        <time>2025-09-23T07:26:12Z</time>
      </trkpt>
      <trkpt lat="47.33338" lon="-1.5389">
        <ele>20.7</ele>
        <time>2025-09-23T07:26:28Z</time>
      </trkpt>
      <trkpt lat="47.33359" lon="-1.53881">
        <ele>21</ele>
        <time>2025-09-23T07:26:44Z</time>
      </trkpt>
      <trkpt lat="47.33381" lon="-1.5387">
        <ele>21</ele>
        <time>2025-09-23T07:27:00Z</time>
      </trkpt>
      <trkpt lat="47.33399" lon="-1.5386">
        <ele>21</ele>
        <time>2025-09-23T07:27:16Z</time>
      </trkpt>
      <trkpt lat="47.33418" lon="-1.53847">
        <ele>20.3</ele>
        <time>2025-09-23T07:27:32Z</time>
      </trkpt>
      <trkpt lat="47.33437" lon="-1.53833">
        <ele>21.4</ele>
        <time>2025-09-23T07:27:48Z</time>
      </trkpt>
      <trkpt lat="47.33444" lon="-1.53808">
        <ele>22</ele>
        <time>2025-09-23T07:28:04Z</time>
      </trkpt>
      <trkpt lat="47.33447" lon="-1.53779">
        <ele>22</ele>
        <time>2025-09-23T07:28:20Z</time>
      </trkpt>
      <trkpt lat="47.3345" lon="-1.53751">
        <ele>22</ele>
        <time>2025-09-23T07:28:36Z</time>
      </trkpt>
      <trkpt lat="47.33457" lon="-1.53721">
        <ele>21.01</ele>
        <time>2025-09-23T07:28:52Z</time>
      </trkpt>
      <trkpt lat="47.33462" lon="-1.53688">
        <ele>21</ele>
        <time>2025-09-23T07:29:08Z</time>
      </trkpt>
      <trkpt lat="47.33467" lon="-1.53658">
        <ele>18.27</ele>
        <time>2025-09-23T07:29:24Z</time>
      </trkpt>
      <trkpt lat="47.33471" lon="-1.53632">
        <ele>18.01</ele>
        <time>2025-09-23T07:29:36Z</time>
      </trkpt>
      <trkpt lat="47.33478" lon="-1.536">
        <ele>18</ele>
        <time>2025-09-23T07:30:08Z</time>
      </trkpt>
      <trkpt lat="47.33486" lon="-1.53566">
        <ele>18</ele>
        <time>2025-09-23T07:30:32Z</time>
      </trkpt>
      <trkpt lat="47.33489" lon="-1.53533">
        <ele>18</ele>
        <time>2025-09-23T07:30:40Z</time>
      </trkpt>
      <trkpt lat="47.33495" lon="-1.535">
        <ele>18</ele>
        <time>2025-09-23T07:30:52Z</time>
      </trkpt>
      <trkpt lat="47.33502" lon="-1.53475">
        <ele>13</ele>
        <time>2025-09-23T07:31:16Z</time>
      </trkpt>
      <trkpt lat="47.33503" lon="-1.53447">
        <ele>13.33</ele>
        <time>2025-09-23T07:31:32Z</time>
      </trkpt>
      <trkpt lat="47.33518" lon="-1.53424">
        <ele>13</ele>
        <time>2025-09-23T07:31:48Z</time>
      </trkpt>
      <trkpt lat="47.33534" lon="-1.53413">
        <ele>13.7</ele>
        <time>2025-09-23T07:32:00Z</time>
      </trkpt>
      <trkpt lat="47.33518" lon="-1.53427">
        <ele>13.01</ele>
        <time>2025-09-23T07:32:28Z</time>
      </trkpt>
      <trkpt lat="47.33508" lon="-1.53402">
        <ele>13.97</ele>
        <time>2025-09-23T07:32:52Z</time>
      </trkpt>
      <trkpt lat="47.33511" lon="-1.53371">
        <ele>14</ele>
        <time>2025-09-23T07:33:08Z</time>
      </trkpt>
      <trkpt lat="47.33516" lon="-1.5334">
        <ele>14</ele>
        <time>2025-09-23T07:33:24Z</time>
      </trkpt>
      <trkpt lat="47.33521" lon="-1.53312">
        <ele>15.98</ele>
        <time>2025-09-23T07:33:40Z</time>
      </trkpt>
      <trkpt lat="47.3353" lon="-1.53289">
        <ele>16</ele>
        <time>2025-09-23T07:33:52Z</time>
      </trkpt>
      <trkpt lat="47.33549" lon="-1.53273">
        <ele>16</ele>
        <time>2025-09-23T07:34:08Z</time>
      </trkpt>
      <trkpt lat="47.33569" lon="-1.53263">
        <ele>16</ele>
        <time>2025-09-23T07:34:24Z</time>
      </trkpt>
      <trkpt lat="47.33588" lon="-1.53249">
        <ele>8.72</ele>
        <time>2025-09-23T07:34:44Z</time>
      </trkpt>
      <trkpt lat="47.33608" lon="-1.5324">
        <ele>8.01</ele>
        <time>2025-09-23T07:35:00Z</time>
      </trkpt>
      <trkpt lat="47.33626" lon="-1.53229">
        <ele>8</ele>
        <time>2025-09-23T07:35:16Z</time>
      </trkpt>
      <trkpt lat="47.33643" lon="-1.5322">
        <ele>8</ele>
        <time>2025-09-23T07:35:28Z</time>
      </trkpt>
      <trkpt lat="47.33663" lon="-1.53208">
        <ele>8</ele>
        <time>2025-09-23T07:35:44Z</time>
      </trkpt>
      <trkpt lat="47.33682" lon="-1.53197">
        <ele>6.02</ele>
        <time>2025-09-23T07:36:00Z</time>
      </trkpt>
      <trkpt lat="47.33701" lon="-1.53187">
        <ele>6</ele>
        <time>2025-09-23T07:36:16Z</time>
      </trkpt>
      <trkpt lat="47.33719" lon="-1.53182">
        <ele>6</ele>
        <time>2025-09-23T07:36:36Z</time>
      </trkpt>
      <trkpt lat="47.33737" lon="-1.53172">
        <ele>6</ele>
        <time>2025-09-23T07:36:52Z</time>
      </trkpt>
      <trkpt lat="47.33756" lon="-1.53159">
        <ele>7.88</ele>
        <time>2025-09-23T07:37:08Z</time>
      </trkpt>
      <trkpt lat="47.33774" lon="-1.53141">
        <ele>8</ele>
        <time>2025-09-23T07:37:24Z</time>
      </trkpt>
      <trkpt lat="47.33787" lon="-1.5312">
        <ele>8</ele>
        <time>2025-09-23T07:37:36Z</time>
      </trkpt>
      <trkpt lat="47.33801" lon="-1.53093">
        <ele>8</ele>
        <time>2025-09-23T07:37:52Z</time>
      </trkpt>
      <trkpt lat="47.33813" lon="-1.53068">
        <ele>6.05</ele>
        <time>2025-09-23T07:38:08Z</time>
      </trkpt>
      <trkpt lat="47.33833" lon="-1.5307">
        <ele>6</ele>
        <time>2025-09-23T07:38:28Z</time>
      </trkpt>
      <trkpt lat="47.33848" lon="-1.53092">
        <ele>9.8</ele>
        <time>2025-09-23T07:38:44Z</time>
      </trkpt>
      <trkpt lat="47.33861" lon="-1.53118">
        <ele>10</ele>
        <time>2025-09-23T07:39:00Z</time>
      </trkpt>
      <trkpt lat="47.3388" lon="-1.53099">
        <ele>10</ele>
        <time>2025-09-23T07:39:20Z</time>
      </trkpt>
      <trkpt lat="47.33893" lon="-1.5308">
        <ele>8.6</ele>
        <time>2025-09-23T07:39:32Z</time>
      </trkpt>
      <trkpt lat="47.33897" lon="-1.53049">
        <ele>8</ele>
        <time>2025-09-23T07:39:48Z</time>
      </trkpt>
      <trkpt lat="47.33906" lon="-1.53018">
        <ele>8</ele>
        <time>2025-09-23T07:40:04Z</time>
      </trkpt>
      <trkpt lat="47.33918" lon="-1.5299">
        <ele>9.68</ele>
        <time>2025-09-23T07:40:20Z</time>
      </trkpt>
      <trkpt lat="47.33929" lon="-1.52967">
        <ele>10.99</ele>
        <time>2025-09-23T07:40:36Z</time>
      </trkpt>
      <trkpt lat="47.33935" lon="-1.5294">
        <ele>11</ele>
        <time>2025-09-23T07:40:52Z</time>
      </trkpt>
      <trkpt lat="47.33946" lon="-1.52918">
        <ele>11</ele>
        <time>2025-09-23T07:41:04Z</time>
      </trkpt>
      <trkpt lat="47.33959" lon="-1.5289">
        <ele>10.01</ele>
        <time>2025-09-23T07:41:20Z</time>
      </trkpt>
      <trkpt lat="47.33971" lon="-1.52867">
        <ele>10</ele>
        <time>2025-09-23T07:41:36Z</time>
      </trkpt>
      <trkpt lat="47.33991" lon="-1.52865">
        <ele>10</ele>
        <time>2025-09-23T07:42:04Z</time>
      </trkpt>
      <trkpt lat="47.34009" lon="-1.52873">
        <ele>13</ele>
        <time>2025-09-23T07:42:48Z</time>
      </trkpt>
      <trkpt lat="47.34017" lon="-1.52847">
        <ele>13</ele>
        <time>2025-09-23T07:43:08Z</time>
      </trkpt>
      <trkpt lat="47.34021" lon="-1.52816">
        <ele>13</ele>
        <time>2025-09-23T07:43:28Z</time>
      </trkpt>
      <trkpt lat="47.34032" lon="-1.52786">
        <ele>13</ele>
        <time>2025-09-23T07:43:44Z</time>
      </trkpt>
      <trkpt lat="47.34052" lon="-1.52787">
        <ele>13</ele>
        <time>2025-09-23T07:44:04Z</time>
      </trkpt>
      <trkpt lat="47.34072" lon="-1.52802">
        <ele>13</ele>
        <time>2025-09-23T07:44:20Z</time>
      </trkpt>
      <trkpt lat="47.3409" lon="-1.52822">
        <ele>15.73</ele>
        <time>2025-09-23T07:44:36Z</time>
      </trkpt>
      <trkpt lat="47.34106" lon="-1.52843">
        <ele>16</ele>
        <time>2025-09-23T07:44:52Z</time>
      </trkpt>
      <trkpt lat="47.34114" lon="-1.52871">
        <ele>16</ele>
        <time>2025-09-23T07:45:08Z</time>
      </trkpt>
      <trkpt lat="47.34129" lon="-1.52892">
        <ele>16</ele>
        <time>2025-09-23T07:45:24Z</time>
      </trkpt>
      <trkpt lat="47.34143" lon="-1.52918">
        <ele>16</ele>
        <time>2025-09-23T07:45:40Z</time>
      </trkpt>
      <trkpt lat="47.34152" lon="-1.52945">
        <ele>16</ele>
        <time>2025-09-23T07:45:56Z</time>
      </trkpt>
      <trkpt lat="47.34162" lon="-1.52972">
        <ele>16</ele>
        <time>2025-09-23T07:46:12Z</time>
      </trkpt>
      <trkpt lat="47.34171" lon="-1.53001">
        <ele>19.64</ele>
        <time>2025-09-23T07:46:28Z</time>
      </trkpt>
      <trkpt lat="47.34181" lon="-1.53029">
        <ele>20</ele>
        <time>2025-09-23T07:46:44Z</time>
      </trkpt>
      <trkpt lat="47.34202" lon="-1.53037">
        <ele>20</ele>
        <time>2025-09-23T07:47:08Z</time>
      </trkpt>
      <trkpt lat="47.3422" lon="-1.53023">
        <ele>20</ele>
        <time>2025-09-23T07:47:24Z</time>
      </trkpt>
      <trkpt lat="47.34238" lon="-1.53004">
        <ele>20</ele>
        <time>2025-09-23T07:47:40Z</time>
      </trkpt>
      <trkpt lat="47.34254" lon="-1.52989">
        <ele>20.7</ele>
        <time>2025-09-23T07:47:56Z</time>
      </trkpt>
      <trkpt lat="47.34272" lon="-1.52972">
        <ele>21</ele>
        <time>2025-09-23T07:48:12Z</time>
      </trkpt>
      <trkpt lat="47.3429" lon="-1.52953">
        <ele>21</ele>
        <time>2025-09-23T07:48:28Z</time>
      </trkpt>
      <trkpt lat="47.34308" lon="-1.52934">
        <ele>21</ele>
        <time>2025-09-23T07:48:44Z</time>
      </trkpt>
      <trkpt lat="47.34326" lon="-1.52914">
        <ele>20.3</ele>
        <time>2025-09-23T07:49:00Z</time>
      </trkpt>
      <trkpt lat="47.34343" lon="-1.52901">
        <ele>20.98</ele>
        <time>2025-09-23T07:49:16Z</time>
      </trkpt>
      <trkpt lat="47.3436" lon="-1.52885">
        <ele>21</ele>
        <time>2025-09-23T07:49:32Z</time>
      </trkpt>
      <trkpt lat="47.34378" lon="-1.52869">
        <ele>21</ele>
        <time>2025-09-23T07:49:48Z</time>
      </trkpt>
      <trkpt lat="47.34393" lon="-1.52848">
        <ele>21</ele>
        <time>2025-09-23T07:50:04Z</time>
      </trkpt>
      <trkpt lat="47.34391" lon="-1.5282">
        <ele>20.09</ele>
        <time>2025-09-23T07:50:20Z</time>
      </trkpt>
      <trkpt lat="47.34372" lon="-1.52806">
        <ele>20</ele>
        <time>2025-09-23T07:50:36Z</time>
      </trkpt>
      <trkpt lat="47.34357" lon="-1.52789">
        <ele>20</ele>
        <time>2025-09-23T07:50:52Z</time>
      </trkpt>
      <trkpt lat="47.34367" lon="-1.52767">
        <ele>20</ele>
        <time>2025-09-23T07:51:04Z</time>
      </trkpt>
      <trkpt lat="47.34379" lon="-1.52742">
        <ele>20</ele>
        <time>2025-09-23T07:51:20Z</time>
      </trkpt>
      <trkpt lat="47.34392" lon="-1.52719">
        <ele>20</ele>
        <time>2025-09-23T07:51:36Z</time>
      </trkpt>
      <trkpt lat="47.3438" lon="-1.52691">
        <ele>20</ele>
        <time>2025-09-23T07:52:00Z</time>
      </trkpt>
      <trkpt lat="47.34364" lon="-1.52671">
        <ele>20</ele>
        <time>2025-09-23T07:52:20Z</time>
      </trkpt>
      <trkpt lat="47.34347" lon="-1.52652">
        <ele>20.99</ele>
        <time>2025-09-23T07:52:36Z</time>
      </trkpt>
      <trkpt lat="47.34329" lon="-1.52638">
        <ele>20.3</ele>
        <time>2025-09-23T07:52:52Z</time>
      </trkpt>
      <trkpt lat="47.34312" lon="-1.52619">
        <ele>20</ele>
        <time>2025-09-23T07:53:08Z</time>
      </trkpt>
      <trkpt lat="47.343" lon="-1.52593">
        <ele>20</ele>
        <time>2025-09-23T07:53:24Z</time>
      </trkpt>
      <trkpt lat="47.3429" lon="-1.52562">
        <ele>23.97</ele>
        <time>2025-09-23T07:53:44Z</time>
      </trkpt>
      <trkpt lat="47.34276" lon="-1.52542">
        <ele>24</ele>
        <time>2025-09-23T07:54:00Z</time>
      </trkpt>
      <trkpt lat="47.34257" lon="-1.52528">
        <ele>24</ele>
        <time>2025-09-23T07:54:16Z</time>
      </trkpt>
      <trkpt lat="47.34243" lon="-1.52504">
        <ele>24.97</ele>
        <time>2025-09-23T07:54:32Z</time>
      </trkpt>
      <trkpt lat="47.34225" lon="-1.52487">
        <ele>28.97</ele>
        <time>2025-09-23T07:54:48Z</time>
      </trkpt>
      <trkpt lat="47.34206" lon="-1.52477">
        <ele>29</ele>
        <time>2025-09-23T07:55:04Z</time>
      </trkpt>
      <trkpt lat="47.34188" lon="-1.52476">
        <ele>29</ele>
        <time>2025-09-23T07:55:20Z</time>
      </trkpt>
      <trkpt lat="47.3417" lon="-1.52487">
        <ele>29</ele>
        <time>2025-09-23T07:55:36Z</time>
      </trkpt>
      <trkpt lat="47.3415" lon="-1.52477">
        <ele>21.06</ele>
        <time>2025-09-23T07:55:52Z</time>
      </trkpt>
      <trkpt lat="47.34133" lon="-1.52486">
        <ele>21</ele>
        <time>2025-09-23T07:56:08Z</time>
      </trkpt>
      <trkpt lat="47.34118" lon="-1.52501">
        <ele>21</ele>
        <time>2025-09-23T07:56:24Z</time>
      </trkpt>
      <trkpt lat="47.34097" lon="-1.52497">
        <ele>21</ele>
        <time>2025-09-23T07:56:40Z</time>
      </trkpt>
      <trkpt lat="47.34077" lon="-1.52492">
        <ele>15.54</ele>
        <time>2025-09-23T07:56:56Z</time>
      </trkpt>
      <trkpt lat="47.34057" lon="-1.52487">
        <ele>15</ele>
        <time>2025-09-23T07:57:32Z</time>
      </trkpt>
      <trkpt lat="47.34039" lon="-1.52486">
        <ele>15</ele>
        <time>2025-09-23T07:57:44Z</time>
      </trkpt>
      <trkpt lat="47.3402" lon="-1.52481">
        <ele>15</ele>
        <time>2025-09-23T07:58:00Z</time>
      </trkpt>
      <trkpt lat="47.34029" lon="-1.52512">
        <ele>16.82</ele>
        <time>2025-09-23T07:58:24Z</time>
      </trkpt>
      <trkpt lat="47.34024" lon="-1.5254">
        <ele>17</ele>
        <time>2025-09-23T07:58:40Z</time>
      </trkpt>
      <trkpt lat="47.34001" lon="-1.52541">
        <ele>17</ele>
        <time>2025-09-23T07:58:56Z</time>
      </trkpt>
      <trkpt lat="47.33979" lon="-1.52537">
        <ele>11.05</ele>
        <time>2025-09-23T07:59:12Z</time>
      </trkpt>
      <trkpt lat="47.33964" lon="-1.52522">
        <ele>11</ele>
        <time>2025-09-23T07:59:28Z</time>
      </trkpt>
      <trkpt lat="47.33942" lon="-1.52519">
        <ele>11</ele>
        <time>2025-09-23T07:59:48Z</time>
      </trkpt>
      <trkpt lat="47.33935" lon="-1.52546">
        <ele>11</ele>
        <time>2025-09-23T08:00:12Z</time>
      </trkpt>
      <trkpt lat="47.33933" lon="-1.52574">
        <ele>11</ele>
        <time>2025-09-23T08:00:28Z</time>
      </trkpt>
      <trkpt lat="47.33916" lon="-1.52582">
        <ele>6.53</ele>
        <time>2025-09-23T08:00:44Z</time>
      </trkpt>
      <trkpt lat="47.33894" lon="-1.52575">
        <ele>5.01</ele>
        <time>2025-09-23T08:01:00Z</time>
      </trkpt>
      <trkpt lat="47.33874" lon="-1.52566">
        <ele>5</ele>
        <time>2025-09-23T08:01:16Z</time>
      </trkpt>
      <trkpt lat="47.33853" lon="-1.52556">
        <ele>5</ele>
        <time>2025-09-23T08:01:32Z</time>
      </trkpt>
      <trkpt lat="47.33833" lon="-1.52545">
        <ele>3.6</ele>
        <time>2025-09-23T08:01:48Z</time>
      </trkpt>
      <trkpt lat="47.33813" lon="-1.52536">
        <ele>3</ele>
        <time>2025-09-23T08:02:04Z</time>
      </trkpt>
      <trkpt lat="47.33793" lon="-1.52531">
        <ele>3</ele>
        <time>2025-09-23T08:02:20Z</time>
      </trkpt>
      <trkpt lat="47.33791" lon="-1.52558">
        <ele>3</ele>
        <time>2025-09-23T08:02:48Z</time>
      </trkpt>
      <trkpt lat="47.33811" lon="-1.52566">
        <ele>3</ele>
        <time>2025-09-23T08:03:04Z</time>
      </trkpt>
      <trkpt lat="47.33828" lon="-1.52575">
        <ele>3</ele>
        <time>2025-09-23T08:03:20Z</time>
      </trkpt>
      <trkpt lat="47.33851" lon="-1.52583">
        <ele>4.98</ele>
        <time>2025-09-23T08:03:36Z</time>
      </trkpt>
      <trkpt lat="47.33872" lon="-1.52589">
        <ele>6.98</ele>
        <time>2025-09-23T08:03:52Z</time>
      </trkpt>
      <trkpt lat="47.33895" lon="-1.52594">
        <ele>7</ele>
        <time>2025-09-23T08:04:08Z</time>
      </trkpt>
      <trkpt lat="47.33914" lon="-1.526">
        <ele>7</ele>
        <time>2025-09-23T08:04:24Z</time>
      </trkpt>
      <trkpt lat="47.33929" lon="-1.52617">
        <ele>9.98</ele>
        <time>2025-09-23T08:04:40Z</time>
      </trkpt>
      <trkpt lat="47.33927" lon="-1.52647">
        <ele>10</ele>
        <time>2025-09-23T08:04:56Z</time>
      </trkpt>
      <trkpt lat="47.33922" lon="-1.52679">
        <ele>10</ele>
        <time>2025-09-23T08:05:12Z</time>
      </trkpt>
      <trkpt lat="47.33918" lon="-1.52709">
        <ele>10</ele>
        <time>2025-09-23T08:05:28Z</time>
      </trkpt>
      <trkpt lat="47.33913" lon="-1.52735">
        <ele>6.03</ele>
        <time>2025-09-23T08:05:44Z</time>
      </trkpt>
      <trkpt lat="47.33908" lon="-1.52762">
        <ele>6</ele>
        <time>2025-09-23T08:06:00Z</time>
      </trkpt>
      <trkpt lat="47.33901" lon="-1.52788">
        <ele>6</ele>
        <time>2025-09-23T08:10:36Z</time>
      </trkpt>
      <trkpt lat="47.33912" lon="-1.52815">
        <ele>6</ele>
        <time>2025-09-23T08:14:32Z</time>
      </trkpt>
      <trkpt lat="47.33932" lon="-1.52825">
        <ele>9.99</ele>
        <time>2025-09-23T08:14:52Z</time>
      </trkpt>
      <trkpt lat="47.33948" lon="-1.52842">
        <ele>10</ele>
        <time>2025-09-23T08:15:08Z</time>
      </trkpt>
      <trkpt lat="47.33967" lon="-1.52856">
        <ele>10</ele>
        <time>2025-09-23T08:15:24Z</time>
      </trkpt>
      <trkpt lat="47.3396" lon="-1.52886">
        <ele>10</ele>
        <time>2025-09-23T08:15:40Z</time>
      </trkpt>
      <trkpt lat="47.33949" lon="-1.52913">
        <ele>10</ele>
        <time>2025-09-23T08:15:56Z</time>
      </trkpt>
      <trkpt lat="47.3394" lon="-1.5294">
        <ele>10.99</ele>
        <time>2025-09-23T08:16:12Z</time>
      </trkpt>
      <trkpt lat="47.33932" lon="-1.52966">
        <ele>11</ele>
        <time>2025-09-23T08:16:28Z</time>
      </trkpt>
      <trkpt lat="47.33919" lon="-1.52992">
        <ele>11</ele>
        <time>2025-09-23T08:16:44Z</time>
      </trkpt>
      <trkpt lat="47.33909" lon="-1.53017">
        <ele>8.08</ele>
        <time>2025-09-23T08:17:00Z</time>
      </trkpt>
      <trkpt lat="47.33899" lon="-1.53045">
        <ele>8</ele>
        <time>2025-09-23T08:17:16Z</time>
      </trkpt>
      <trkpt lat="47.33888" lon="-1.53073">
        <ele>8</ele>
        <time>2025-09-23T08:17:32Z</time>
      </trkpt>
      <trkpt lat="47.33879" lon="-1.531">
        <ele>9.95</ele>
        <time>2025-09-23T08:17:48Z</time>
      </trkpt>
      <trkpt lat="47.33864" lon="-1.53119">
        <ele>10</ele>
        <time>2025-09-23T08:18:04Z</time>
      </trkpt>
      <trkpt lat="47.33851" lon="-1.53102">
        <ele>10</ele>
        <time>2025-09-23T08:18:16Z</time>
      </trkpt>
      <trkpt lat="47.33837" lon="-1.53079">
        <ele>8.6</ele>
        <time>2025-09-23T08:18:32Z</time>
      </trkpt>
      <trkpt lat="47.33821" lon="-1.53059">
        <ele>6.06</ele>
        <time>2025-09-23T08:18:48Z</time>
      </trkpt>
      <trkpt lat="47.33807" lon="-1.53084">
        <ele>7.4</ele>
        <time>2025-09-23T08:19:08Z</time>
      </trkpt>
      <trkpt lat="47.33795" lon="-1.53109">
        <ele>8</ele>
        <time>2025-09-23T08:19:24Z</time>
      </trkpt>
      <trkpt lat="47.33783" lon="-1.53133">
        <ele>8</ele>
        <time>2025-09-23T08:19:40Z</time>
      </trkpt>
      <trkpt lat="47.33768" lon="-1.53154">
        <ele>8</ele>
        <time>2025-09-23T08:19:56Z</time>
      </trkpt>
      <trkpt lat="47.33749" lon="-1.53166">
        <ele>7.3</ele>
        <time>2025-09-23T08:20:12Z</time>
      </trkpt>
      <trkpt lat="47.33731" lon="-1.53176">
        <ele>6.04</ele>
        <time>2025-09-23T08:20:24Z</time>
      </trkpt>
      <trkpt lat="47.33713" lon="-1.53186">
        <ele>6</ele>
        <time>2025-09-23T08:20:40Z</time>
      </trkpt>
      <trkpt lat="47.33692" lon="-1.53198">
        <ele>6</ele>
        <time>2025-09-23T08:20:56Z</time>
      </trkpt>
      <trkpt lat="47.33672" lon="-1.53209">
        <ele>6</ele>
        <time>2025-09-23T08:21:12Z</time>
      </trkpt>
      <trkpt lat="47.33654" lon="-1.53221">
        <ele>7.95</ele>
        <time>2025-09-23T08:21:28Z</time>
      </trkpt>
      <trkpt lat="47.33633" lon="-1.5323">
        <ele>8</ele>
        <time>2025-09-23T08:21:44Z</time>
      </trkpt>
      <trkpt lat="47.33615" lon="-1.53242">
        <ele>8</ele>
        <time>2025-09-23T08:22:00Z</time>
      </trkpt>
      <trkpt lat="47.33595" lon="-1.53254">
        <ele>8</ele>
        <time>2025-09-23T08:22:16Z</time>
      </trkpt>
      <trkpt lat="47.33575" lon="-1.53261">
        <ele>15.28</ele>
        <time>2025-09-23T08:22:32Z</time>
      </trkpt>
      <trkpt lat="47.33553" lon="-1.53274">
        <ele>15.99</ele>
        <time>2025-09-23T08:22:48Z</time>
      </trkpt>
      <trkpt lat="47.33534" lon="-1.53283">
        <ele>16</ele>
        <time>2025-09-23T08:23:04Z</time>
      </trkpt>
      <trkpt lat="47.33525" lon="-1.53259">
        <ele>16</ele>
        <time>2025-09-23T08:23:20Z</time>
      </trkpt>
      <trkpt lat="47.33529" lon="-1.53226">
        <ele>12.11</ele>
        <time>2025-09-23T08:23:36Z</time>
      </trkpt>
      <trkpt lat="47.33533" lon="-1.53194">
        <ele>12</ele>
        <time>2025-09-23T08:23:52Z</time>
      </trkpt>
      <trkpt lat="47.33536" lon="-1.53163">
        <ele>11.3</ele>
        <time>2025-09-23T08:24:08Z</time>
      </trkpt>
      <trkpt lat="47.33517" lon="-1.53151">
        <ele>11</ele>
        <time>2025-09-23T08:24:40Z</time>
      </trkpt>
      <trkpt lat="47.33498" lon="-1.5316">
        <ele>13.1</ele>
        <time>2025-09-23T08:24:56Z</time>
      </trkpt>
      <trkpt lat="47.33478" lon="-1.53171">
        <ele>15.81</ele>
        <time>2025-09-23T08:25:12Z</time>
      </trkpt>
      <trkpt lat="47.33462" lon="-1.53186">
        <ele>16</ele>
        <time>2025-09-23T08:25:28Z</time>
      </trkpt>
      <trkpt lat="47.33445" lon="-1.532">
        <ele>16</ele>
        <time>2025-09-23T08:25:44Z</time>
      </trkpt>
      <trkpt lat="47.33425" lon="-1.53208">
        <ele>16</ele>
        <time>2025-09-23T08:26:00Z</time>
      </trkpt>
      <trkpt lat="47.33405" lon="-1.53207">
        <ele>19.89</ele>
        <time>2025-09-23T08:26:16Z</time>
      </trkpt>
      <trkpt lat="47.33385" lon="-1.53208">
        <ele>20</ele>
        <time>2025-09-23T08:26:32Z</time>
      </trkpt>
      <trkpt lat="47.33364" lon="-1.53206">
        <ele>20</ele>
        <time>2025-09-23T08:26:48Z</time>
      </trkpt>
      <trkpt lat="47.33344" lon="-1.53204">
        <ele>20</ele>
        <time>2025-09-23T08:27:04Z</time>
      </trkpt>
      <trkpt lat="47.33325" lon="-1.53202">
        <ele>21.82</ele>
        <time>2025-09-23T08:27:20Z</time>
      </trkpt>
      <trkpt lat="47.33305" lon="-1.53201">
        <ele>22</ele>
        <time>2025-09-23T08:27:36Z</time>
      </trkpt>
      <trkpt lat="47.33286" lon="-1.53202">
        <ele>22</ele>
        <time>2025-09-23T08:27:52Z</time>
      </trkpt>
      <trkpt lat="47.33266" lon="-1.53199">
        <ele>22</ele>
        <time>2025-09-23T08:28:08Z</time>
      </trkpt>
      <trkpt lat="47.33247" lon="-1.532">
        <ele>24.1</ele>
        <time>2025-09-23T08:28:24Z</time>
      </trkpt>
      <trkpt lat="47.33226" lon="-1.53204">
        <ele>24.99</ele>
        <time>2025-09-23T08:28:40Z</time>
      </trkpt>
      <trkpt lat="47.33206" lon="-1.53201">
        <ele>25</ele>
        <time>2025-09-23T08:28:56Z</time>
      </trkpt>
      <trkpt lat="47.33202" lon="-1.53175">
        <ele>25</ele>
        <time>2025-09-23T08:29:08Z</time>
      </trkpt>
      <trkpt lat="47.33194" lon="-1.53148">
        <ele>25.97</ele>
        <time>2025-09-23T08:29:24Z</time>
      </trkpt>
      <trkpt lat="47.33187" lon="-1.5312">
        <ele>26</ele>
        <time>2025-09-23T08:29:40Z</time>
      </trkpt>
      <trkpt lat="47.33178" lon="-1.53094">
        <ele>26</ele>
        <time>2025-09-23T08:29:56Z</time>
      </trkpt>
      <trkpt lat="47.33173" lon="-1.53068">
        <ele>26</ele>
        <time>2025-09-23T08:30:08Z</time>
      </trkpt>
      <trkpt lat="47.33171" lon="-1.53041">
        <ele>26</ele>
        <time>2025-09-23T08:30:24Z</time>
      </trkpt>
      <trkpt lat="47.33175" lon="-1.53073">
        <ele>26</ele>
        <time>2025-09-23T08:32:52Z</time>
      </trkpt>
      <trkpt lat="47.33185" lon="-1.53102">
        <ele>26</ele>
        <time>2025-09-23T08:33:12Z</time>
      </trkpt>
      <trkpt lat="47.33192" lon="-1.53127">
        <ele>26</ele>
        <time>2025-09-23T08:33:28Z</time>
      </trkpt>
      <trkpt lat="47.33198" lon="-1.53159">
        <ele>26</ele>
        <time>2025-09-23T08:33:48Z</time>
      </trkpt>
      <trkpt lat="47.33206" lon="-1.5319">
        <ele>25.03</ele>
        <time>2025-09-23T08:34:04Z</time>
      </trkpt>
      <trkpt lat="47.33212" lon="-1.53219">
        <ele>25</ele>
        <time>2025-09-23T08:34:20Z</time>
      </trkpt>
      <trkpt lat="47.33197" lon="-1.53241">
        <ele>25</ele>
        <time>2025-09-23T08:34:40Z</time>
      </trkpt>
      <trkpt lat="47.33179" lon="-1.53256">
        <ele>25</ele>
        <time>2025-09-23T08:34:56Z</time>
      </trkpt>
      <trkpt lat="47.33161" lon="-1.53271">
        <ele>23.18</ele>
        <time>2025-09-23T08:35:12Z</time>
      </trkpt>
      <trkpt lat="47.33148" lon="-1.53289">
        <ele>23</ele>
        <time>2025-09-23T08:35:28Z</time>
      </trkpt>
      <trkpt lat="47.33136" lon="-1.53313">
        <ele>23</ele>
        <time>2025-09-23T08:35:44Z</time>
      </trkpt>
      <trkpt lat="47.33116" lon="-1.53316">
        <ele>23</ele>
        <time>2025-09-23T08:36:00Z</time>
      </trkpt>
      <trkpt lat="47.33095" lon="-1.53319">
        <ele>23</ele>
        <time>2025-09-23T08:36:16Z</time>
      </trkpt>
      <trkpt lat="47.33074" lon="-1.53326">
        <ele>16.63</ele>
        <time>2025-09-23T08:36:32Z</time>
      </trkpt>
      <trkpt lat="47.33053" lon="-1.53328">
        <ele>16.01</ele>
        <time>2025-09-23T08:36:48Z</time>
      </trkpt>
      <trkpt lat="47.33032" lon="-1.53328">
        <ele>16</ele>
        <time>2025-09-23T08:37:08Z</time>
      </trkpt>
      <trkpt lat="47.33014" lon="-1.53334">
        <ele>16</ele>
        <time>2025-09-23T08:37:24Z</time>
      </trkpt>
      <trkpt lat="47.33001" lon="-1.53354">
        <ele>16</ele>
        <time>2025-09-23T08:37:40Z</time>
      </trkpt>
      <trkpt lat="47.33002" lon="-1.53382">
        <ele>16</ele>
        <time>2025-09-23T08:37:56Z</time>
      </trkpt>
      <trkpt lat="47.33002" lon="-1.53414">
        <ele>16</ele>
        <time>2025-09-23T08:38:12Z</time>
      </trkpt>
      <trkpt lat="47.33006" lon="-1.53444">
        <ele>16.99</ele>
        <time>2025-09-23T08:38:28Z</time>
      </trkpt>
      <trkpt lat="47.33012" lon="-1.53473">
        <ele>17</ele>
        <time>2025-09-23T08:38:44Z</time>
      </trkpt>
      <trkpt lat="47.33003" lon="-1.53497">
        <ele>17</ele>
        <time>2025-09-23T08:39:00Z</time>
      </trkpt>
      <trkpt lat="47.32988" lon="-1.53513">
        <ele>12.14</ele>
        <time>2025-09-23T08:39:12Z</time>
      </trkpt>
      <trkpt lat="47.32969" lon="-1.53528">
        <ele>12</ele>
        <time>2025-09-23T08:39:28Z</time>
      </trkpt>
      <trkpt lat="47.32948" lon="-1.53534">
        <ele>12</ele>
        <time>2025-09-23T08:39:44Z</time>
      </trkpt>
      <trkpt lat="47.32928" lon="-1.53541">
        <ele>12</ele>
        <time>2025-09-23T08:40:00Z</time>
      </trkpt>
      <trkpt lat="47.32907" lon="-1.53548">
        <ele>12.91</ele>
        <time>2025-09-23T08:40:16Z</time>
      </trkpt>
      <trkpt lat="47.3289" lon="-1.53559">
        <ele>13</ele>
        <time>2025-09-23T08:40:28Z</time>
      </trkpt>
      <trkpt lat="47.32871" lon="-1.53577">
        <ele>13</ele>
        <time>2025-09-23T08:40:44Z</time>
      </trkpt>
      <trkpt lat="47.32851" lon="-1.53592">
        <ele>13.97</ele>
        <time>2025-09-23T08:41:00Z</time>
      </trkpt>
      <trkpt lat="47.32835" lon="-1.53607">
        <ele>14</ele>
        <time>2025-09-23T08:41:16Z</time>
      </trkpt>
      <trkpt lat="47.32832" lon="-1.53635">
        <ele>16.98</ele>
        <time>2025-09-23T08:41:32Z</time>
      </trkpt>
      <trkpt lat="47.32845" lon="-1.5366">
        <ele>14.02</ele>
        <time>2025-09-23T08:41:48Z</time>
      </trkpt>
      <trkpt lat="47.32828" lon="-1.5368">
        <ele>17.1</ele>
        <time>2025-09-23T08:42:12Z</time>
      </trkpt>
      <trkpt lat="47.32807" lon="-1.53685">
        <ele>17.99</ele>
        <time>2025-09-23T08:42:28Z</time>
      </trkpt>
      <trkpt lat="47.32786" lon="-1.53687">
        <ele>18</ele>
        <time>2025-09-23T08:42:48Z</time>
      </trkpt>
      <trkpt lat="47.32766" lon="-1.53693">
        <ele>18</ele>
        <time>2025-09-23T08:43:04Z</time>
      </trkpt>
      <trkpt lat="47.32745" lon="-1.53699">
        <ele>20.8</ele>
        <time>2025-09-23T08:43:20Z</time>
      </trkpt>
      <trkpt lat="47.32724" lon="-1.53705">
        <ele>21.99</ele>
        <time>2025-09-23T08:43:36Z</time>
      </trkpt>
      <trkpt lat="47.32702" lon="-1.53706">
        <ele>22</ele>
        <time>2025-09-23T08:43:52Z</time>
      </trkpt>
      <trkpt lat="47.32679" lon="-1.53703">
        <ele>22</ele>
        <time>2025-09-23T08:44:08Z</time>
      </trkpt>
      <trkpt lat="47.32658" lon="-1.53704">
        <ele>25.64</ele>
        <time>2025-09-23T08:44:24Z</time>
      </trkpt>
      <trkpt lat="47.32637" lon="-1.537">
        <ele>26</ele>
        <time>2025-09-23T08:44:40Z</time>
      </trkpt>
      <trkpt lat="47.32616" lon="-1.53693">
        <ele>26</ele>
        <time>2025-09-23T08:44:56Z</time>
      </trkpt>
      <trkpt lat="47.32594" lon="-1.53686">
        <ele>26</ele>
        <time>2025-09-23T08:45:12Z</time>
      </trkpt>
      <trkpt lat="47.32572" lon="-1.53675">
        <ele>27.95</ele>
        <time>2025-09-23T08:45:28Z</time>
      </trkpt>
      <trkpt lat="47.32551" lon="-1.53664">
        <ele>28.7</ele>
        <time>2025-09-23T08:45:44Z</time>
      </trkpt>
      <trkpt lat="47.3253" lon="-1.53654">
        <ele>29</ele>
        <time>2025-09-23T08:46:00Z</time>
      </trkpt>
      <trkpt lat="47.32509" lon="-1.53644">
        <ele>29</ele>
        <time>2025-09-23T08:46:16Z</time>
      </trkpt>
      <trkpt lat="47.32488" lon="-1.53633">
        <ele>29</ele>
        <time>2025-09-23T08:46:32Z</time>
      </trkpt>
      <trkpt lat="47.32468" lon="-1.53623">
        <ele>29</ele>
        <time>2025-09-23T08:46:48Z</time>
      </trkpt>
      <trkpt lat="47.32447" lon="-1.53613">
        <ele>29</ele>
        <time>2025-09-23T08:47:04Z</time>
      </trkpt>
      <trkpt lat="47.32426" lon="-1.53602">
        <ele>29</ele>
        <time>2025-09-23T08:47:20Z</time>
      </trkpt>
      <trkpt lat="47.32405" lon="-1.53592">
        <ele>24.14</ele>
        <time>2025-09-23T08:47:36Z</time>
      </trkpt>
      <trkpt lat="47.32385" lon="-1.53581">
        <ele>24.7</ele>
        <time>2025-09-23T08:47:52Z</time>
      </trkpt>
      <trkpt lat="47.32365" lon="-1.53572">
        <ele>25</ele>
        <time>2025-09-23T08:48:08Z</time>
      </trkpt>
      <trkpt lat="47.32344" lon="-1.53563">
        <ele>25</ele>
        <time>2025-09-23T08:48:24Z</time>
      </trkpt>
      <trkpt lat="47.32324" lon="-1.53554">
        <ele>18.63</ele>
        <time>2025-09-23T08:48:40Z</time>
      </trkpt>
      <trkpt lat="47.32306" lon="-1.53539">
        <ele>18.01</ele>
        <time>2025-09-23T08:48:56Z</time>
      </trkpt>
      <trkpt lat="47.32285" lon="-1.53529">
        <ele>18</ele>
        <time>2025-09-23T08:49:12Z</time>
      </trkpt>
      <trkpt lat="47.32265" lon="-1.53517">
        <ele>18</ele>
        <time>2025-09-23T08:49:28Z</time>
      </trkpt>
      <trkpt lat="47.32254" lon="-1.53541">
        <ele>17.75</ele>
        <time>2025-09-23T08:49:52Z</time>
      </trkpt>
      <trkpt lat="47.32249" lon="-1.53566">
        <ele>14.94</ele>
        <time>2025-09-23T08:50:04Z</time>
      </trkpt>
      <trkpt lat="47.32234" lon="-1.53587">
        <ele>13.1</ele>
        <time>2025-09-23T08:50:20Z</time>
      </trkpt>
      <trkpt lat="47.32216" lon="-1.53591">
        <ele>13</ele>
        <time>2025-09-23T08:50:36Z</time>
      </trkpt>
      <trkpt lat="47.32194" lon="-1.5359">
        <ele>13</ele>
        <time>2025-09-23T08:51:20Z</time>
      </trkpt>
      <trkpt lat="47.32172" lon="-1.53589">
        <ele>13</ele>
        <time>2025-09-23T08:51:36Z</time>
      </trkpt>
      <trkpt lat="47.32149" lon="-1.53588">
        <ele>13</ele>
        <time>2025-09-23T08:51:52Z</time>
      </trkpt>
      <trkpt lat="47.32127" lon="-1.5359">
        <ele>13</ele>
        <time>2025-09-23T08:52:08Z</time>
      </trkpt>
      <trkpt lat="47.32106" lon="-1.53594">
        <ele>13</ele>
        <time>2025-09-23T08:52:24Z</time>
      </trkpt>
      <trkpt lat="47.32087" lon="-1.53609">
        <ele>13</ele>
        <time>2025-09-23T08:52:40Z</time>
      </trkpt>
      <trkpt lat="47.3207" lon="-1.53628">
        <ele>13</ele>
        <time>2025-09-23T08:52:56Z</time>
      </trkpt>
      <trkpt lat="47.32065" lon="-1.5366">
        <ele>13</ele>
        <time>2025-09-23T08:53:12Z</time>
      </trkpt>
      <trkpt lat="47.32056" lon="-1.5369">
        <ele>7.16</ele>
        <time>2025-09-23T08:53:28Z</time>
      </trkpt>
      <trkpt lat="47.32044" lon="-1.53711">
        <ele>7</ele>
        <time>2025-09-23T08:53:40Z</time>
      </trkpt>
      <trkpt lat="47.32024" lon="-1.53728">
        <ele>7</ele>
        <time>2025-09-23T08:53:56Z</time>
      </trkpt>
      <trkpt lat="47.32004" lon="-1.53743">
        <ele>7</ele>
        <time>2025-09-23T08:54:12Z</time>
      </trkpt>
      <trkpt lat="47.31989" lon="-1.53764">
        <ele>6.1</ele>
        <time>2025-09-23T08:54:28Z</time>
      </trkpt>
      <trkpt lat="47.31971" lon="-1.53782">
        <ele>6</ele>
        <time>2025-09-23T08:54:44Z</time>
      </trkpt>
      <trkpt lat="47.31959" lon="-1.53806">
        <ele>6</ele>
        <time>2025-09-23T08:55:00Z</time>
      </trkpt>
      <trkpt lat="47.31947" lon="-1.53833">
        <ele>6</ele>
        <time>2025-09-23T08:55:16Z</time>
      </trkpt>
      <trkpt lat="47.31933" lon="-1.5386">
        <ele>5.01</ele>
        <time>2025-09-23T08:55:32Z</time>
      </trkpt>
      <trkpt lat="47.31919" lon="-1.5388">
        <ele>5</ele>
        <time>2025-09-23T08:55:48Z</time>
      </trkpt>
      <trkpt lat="47.31907" lon="-1.53908">
        <ele>7.98</ele>
        <time>2025-09-23T08:56:04Z</time>
      </trkpt>
      <trkpt lat="47.31892" lon="-1.53934">
        <ele>6.05</ele>
        <time>2025-09-23T08:56:20Z</time>
      </trkpt>
      <trkpt lat="47.31879" lon="-1.5396">
        <ele>6</ele>
        <time>2025-09-23T08:56:36Z</time>
      </trkpt>
      <trkpt lat="47.31867" lon="-1.53986">
        <ele>6</ele>
        <time>2025-09-23T08:56:52Z</time>
      </trkpt>
      <trkpt lat="47.31855" lon="-1.54013">
        <ele>5.09</ele>
        <time>2025-09-23T08:57:08Z</time>
      </trkpt>
      <trkpt lat="47.31842" lon="-1.5404">
        <ele>5</ele>
        <time>2025-09-23T08:57:24Z</time>
      </trkpt>
      <trkpt lat="47.3183" lon="-1.54065">
        <ele>9.55</ele>
        <time>2025-09-23T08:57:40Z</time>
      </trkpt>
      <trkpt lat="47.31816" lon="-1.54092">
        <ele>8.18</ele>
        <time>2025-09-23T08:57:56Z</time>
      </trkpt>
      <trkpt lat="47.31802" lon="-1.54116">
        <ele>8</ele>
        <time>2025-09-23T08:58:12Z</time>
      </trkpt>
      <trkpt lat="47.3179" lon="-1.54142">
        <ele>8</ele>
        <time>2025-09-23T08:58:28Z</time>
      </trkpt>
      <trkpt lat="47.31776" lon="-1.54168">
        <ele>9.4</ele>
        <time>2025-09-23T08:58:44Z</time>
      </trkpt>
      <trkpt lat="47.31762" lon="-1.54195">
        <ele>10</ele>
        <time>2025-09-23T08:59:00Z</time>
      </trkpt>
      <trkpt lat="47.31743" lon="-1.54211">
        <ele>9.09</ele>
        <time>2025-09-23T08:59:16Z</time>
      </trkpt>
      <trkpt lat="47.31729" lon="-1.54227">
        <ele>9</ele>
        <time>2025-09-23T08:59:28Z</time>
      </trkpt>
      <trkpt lat="47.31709" lon="-1.54243">
        <ele>9</ele>
        <time>2025-09-23T08:59:44Z</time>
      </trkpt>
      <trkpt lat="47.31689" lon="-1.5426">
        <ele>15.81</ele>
        <time>2025-09-23T09:00:00Z</time>
      </trkpt>
      <trkpt lat="47.31671" lon="-1.54276">
        <ele>16</ele>
        <time>2025-09-23T09:00:16Z</time>
      </trkpt>
      <trkpt lat="47.31651" lon="-1.54294">
        <ele>14.05</ele>
        <time>2025-09-23T09:00:32Z</time>
      </trkpt>
      <trkpt lat="47.31634" lon="-1.54312">
        <ele>14</ele>
        <time>2025-09-23T09:00:48Z</time>
      </trkpt>
      <trkpt lat="47.31618" lon="-1.54329">
        <ele>14</ele>
        <time>2025-09-23T09:01:24Z</time>
      </trkpt>
      <trkpt lat="47.31599" lon="-1.5433">
        <ele>14</ele>
        <time>2025-09-23T09:01:40Z</time>
      </trkpt>
      <trkpt lat="47.3158" lon="-1.54329">
        <ele>9.8</ele>
        <time>2025-09-23T09:01:56Z</time>
      </trkpt>
      <trkpt lat="47.31557" lon="-1.54329">
        <ele>8.01</ele>
        <time>2025-09-23T09:02:12Z</time>
      </trkpt>
      <trkpt lat="47.31535" lon="-1.5433">
        <ele>8</ele>
        <time>2025-09-23T09:02:28Z</time>
      </trkpt>
      <trkpt lat="47.31513" lon="-1.54331">
        <ele>8</ele>
        <time>2025-09-23T09:02:44Z</time>
      </trkpt>
      <trkpt lat="47.31493" lon="-1.54339">
        <ele>5.46</ele>
        <time>2025-09-23T09:03:00Z</time>
      </trkpt>
      <trkpt lat="47.31472" lon="-1.54337">
        <ele>5</ele>
        <time>2025-09-23T09:03:16Z</time>
      </trkpt>
      <trkpt lat="47.31448" lon="-1.54337">
        <ele>5</ele>
        <time>2025-09-23T09:03:32Z</time>
      </trkpt>
      <trkpt lat="47.31427" lon="-1.54326">
        <ele>5.97</ele>
        <time>2025-09-23T09:03:48Z</time>
      </trkpt>
      <trkpt lat="47.31408" lon="-1.54321">
        <ele>7.82</ele>
        <time>2025-09-23T09:04:04Z</time>
      </trkpt>
      <trkpt lat="47.31386" lon="-1.5432">
        <ele>8</ele>
        <time>2025-09-23T09:04:20Z</time>
      </trkpt>
      <trkpt lat="47.31363" lon="-1.5432">
        <ele>8</ele>
        <time>2025-09-23T09:04:36Z</time>
      </trkpt>
      <trkpt lat="47.31345" lon="-1.54316">
        <ele>8</ele>
        <time>2025-09-23T09:04:48Z</time>
      </trkpt>
      <trkpt lat="47.31324" lon="-1.54306">
        <ele>8.97</ele>
        <time>2025-09-23T09:05:04Z</time>
      </trkpt>
      <trkpt lat="47.31305" lon="-1.54307">
        <ele>9</ele>
        <time>2025-09-23T09:05:16Z</time>
      </trkpt>
      <trkpt lat="47.31283" lon="-1.54306">
        <ele>9</ele>
        <time>2025-09-23T09:05:32Z</time>
      </trkpt>
      <trkpt lat="47.31262" lon="-1.54309">
        <ele>9</ele>
        <time>2025-09-23T09:05:48Z</time>
      </trkpt>
      <trkpt lat="47.31245" lon="-1.5432">
        <ele>7.18</ele>
        <time>2025-09-23T09:06:04Z</time>
      </trkpt>
      <trkpt lat="47.31225" lon="-1.54335">
        <ele>8.82</ele>
        <time>2025-09-23T09:06:20Z</time>
      </trkpt>
      <trkpt lat="47.31209" lon="-1.54319">
        <ele>7</ele>
        <time>2025-09-23T09:07:16Z</time>
      </trkpt>
      <trkpt lat="47.31193" lon="-1.54302">
        <ele>7</ele>
        <time>2025-09-23T09:07:32Z</time>
      </trkpt>
      <trkpt lat="47.31173" lon="-1.54294">
        <ele>7</ele>
        <time>2025-09-23T09:07:48Z</time>
      </trkpt>
      <trkpt lat="47.31153" lon="-1.54292">
        <ele>10.89</ele>
        <time>2025-09-23T09:08:04Z</time>
      </trkpt>
      <trkpt lat="47.31132" lon="-1.54292">
        <ele>11</ele>
        <time>2025-09-23T09:08:20Z</time>
      </trkpt>
      <trkpt lat="47.31111" lon="-1.54295">
        <ele>11</ele>
        <time>2025-09-23T09:08:36Z</time>
      </trkpt>
      <trkpt lat="47.31089" lon="-1.54292">
        <ele>11</ele>
        <time>2025-09-23T09:08:52Z</time>
      </trkpt>
      <trkpt lat="47.31068" lon="-1.5429">
        <ele>12.95</ele>
        <time>2025-09-23T09:09:08Z</time>
      </trkpt>
      <trkpt lat="47.31046" lon="-1.54289">
        <ele>13</ele>
        <time>2025-09-23T09:09:24Z</time>
      </trkpt>
      <trkpt lat="47.31035" lon="-1.54317">
        <ele>13</ele>
        <time>2025-09-23T09:09:44Z</time>
      </trkpt>
      <trkpt lat="47.31026" lon="-1.5434">
        <ele>16.64</ele>
        <time>2025-09-23T09:10:00Z</time>
      </trkpt>
      <trkpt lat="47.31006" lon="-1.54338">
        <ele>17</ele>
        <time>2025-09-23T09:10:16Z</time>
      </trkpt>
      <trkpt lat="47.30984" lon="-1.54342">
        <ele>15.02</ele>
        <time>2025-09-23T09:10:32Z</time>
      </trkpt>
      <trkpt lat="47.30964" lon="-1.54356">
        <ele>15</ele>
        <time>2025-09-23T09:10:48Z</time>
      </trkpt>
      <trkpt lat="47.30949" lon="-1.54381">
        <ele>15</ele>
        <time>2025-09-23T09:11:04Z</time>
      </trkpt>
      <trkpt lat="47.3094" lon="-1.5441">
        <ele>15</ele>
        <time>2025-09-23T09:11:20Z</time>
      </trkpt>
      <trkpt lat="47.30937" lon="-1.5444">
        <ele>15</ele>
        <time>2025-09-23T09:11:36Z</time>
      </trkpt>
      <trkpt lat="47.30934" lon="-1.54471">
        <ele>15</ele>
        <time>2025-09-23T09:11:52Z</time>
      </trkpt>
      <trkpt lat="47.30939" lon="-1.54503">
        <ele>15.7</ele>
        <time>2025-09-23T09:12:08Z</time>
      </trkpt>
      <trkpt lat="47.30948" lon="-1.54532">
        <ele>16</ele>
        <time>2025-09-23T09:12:24Z</time>
      </trkpt>
      <trkpt lat="47.30952" lon="-1.54565">
        <ele>16</ele>
        <time>2025-09-23T09:12:40Z</time>
      </trkpt>
      <trkpt lat="47.30957" lon="-1.54597">
        <ele>17.82</ele>
        <time>2025-09-23T09:12:56Z</time>
      </trkpt>
      <trkpt lat="47.30961" lon="-1.54629">
        <ele>18</ele>
        <time>2025-09-23T09:13:12Z</time>
      </trkpt>
      <trkpt lat="47.30964" lon="-1.54659">
        <ele>18</ele>
        <time>2025-09-23T09:13:28Z</time>
      </trkpt>
      <trkpt lat="47.3097" lon="-1.54689">
        <ele>19.95</ele>
        <time>2025-09-23T09:13:44Z</time>
      </trkpt>
      <trkpt lat="47.30976" lon="-1.54721">
        <ele>20</ele>
        <time>2025-09-23T09:14:00Z</time>
      </trkpt>
      <trkpt lat="47.30984" lon="-1.54751">
        <ele>21.4</ele>
        <time>2025-09-23T09:14:16Z</time>
      </trkpt>
      <trkpt lat="47.30998" lon="-1.54775">
        <ele>22</ele>
        <time>2025-09-23T09:14:32Z</time>
      </trkpt>
      <trkpt lat="47.31013" lon="-1.54793">
        <ele>24</ele>
        <time>2025-09-23T09:15:00Z</time>
      </trkpt>
      <trkpt lat="47.31023" lon="-1.5482">
        <ele>24</ele>
        <time>2025-09-23T09:15:20Z</time>
      </trkpt>
      <trkpt lat="47.31023" lon="-1.54848">
        <ele>27.89</ele>
        <time>2025-09-23T09:15:36Z</time>
      </trkpt>
      <trkpt lat="47.31008" lon="-1.54872">
        <ele>28</ele>
        <time>2025-09-23T09:15:56Z</time>
      </trkpt>
      <trkpt lat="47.30989" lon="-1.5488">
        <ele>23.13</ele>
        <time>2025-09-23T09:16:12Z</time>
      </trkpt>
      <trkpt lat="47.30969" lon="-1.54883">
        <ele>23</ele>
        <time>2025-09-23T09:16:28Z</time>
      </trkpt>
      <trkpt lat="47.30948" lon="-1.54887">
        <ele>23</ele>
        <time>2025-09-23T09:16:44Z</time>
      </trkpt>
      <trkpt lat="47.30929" lon="-1.54895">
        <ele>23</ele>
        <time>2025-09-23T09:17:00Z</time>
      </trkpt>
      <trkpt lat="47.30919" lon="-1.54918">
        <ele>22.3</ele>
        <time>2025-09-23T09:17:20Z</time>
      </trkpt>
      <trkpt lat="47.30918" lon="-1.54947">
        <ele>22</ele>
        <time>2025-09-23T09:17:36Z</time>
      </trkpt>
      <trkpt lat="47.30921" lon="-1.54976">
        <ele>22</ele>
        <time>2025-09-23T09:17:52Z</time>
      </trkpt>
      <trkpt lat="47.30904" lon="-1.54992">
        <ele>23.95</ele>
        <time>2025-09-23T09:18:16Z</time>
      </trkpt>
      <trkpt lat="47.30882" lon="-1.54998">
        <ele>24</ele>
        <time>2025-09-23T09:18:36Z</time>
      </trkpt>
      <trkpt lat="47.30863" lon="-1.55001">
        <ele>24</ele>
        <time>2025-09-23T09:18:52Z</time>
      </trkpt>
      <trkpt lat="47.30855" lon="-1.55027">
        <ele>24</ele>
        <time>2025-09-23T09:19:08Z</time>
      </trkpt>
      <trkpt lat="47.30858" lon="-1.55059">
        <ele>24</ele>
        <time>2025-09-23T09:19:24Z</time>
      </trkpt>
      <trkpt lat="47.30861" lon="-1.55088">
        <ele>26.1</ele>
        <time>2025-09-23T09:19:40Z</time>
      </trkpt>
      <trkpt lat="47.30865" lon="-1.55117">
        <ele>26.99</ele>
        <time>2025-09-23T09:19:56Z</time>
      </trkpt>
      <trkpt lat="47.30867" lon="-1.55147">
        <ele>27</ele>
        <time>2025-09-23T09:20:12Z</time>
      </trkpt>
      <trkpt lat="47.3087" lon="-1.55177">
        <ele>28.82</ele>
        <time>2025-09-23T09:20:28Z</time>
      </trkpt>
      <trkpt lat="47.30863" lon="-1.55204">
        <ele>29</ele>
        <time>2025-09-23T09:21:04Z</time>
      </trkpt>
      <trkpt lat="47.30868" lon="-1.55231">
        <ele>29</ele>
        <time>2025-09-23T09:21:20Z</time>
      </trkpt>
      <trkpt lat="47.30867" lon="-1.55261">
        <ele>29.91</ele>
        <time>2025-09-23T09:21:36Z</time>
      </trkpt>
      <trkpt lat="47.30856" lon="-1.55283">
        <ele>30</ele>
        <time>2025-09-23T09:21:56Z</time>
      </trkpt>
      <trkpt lat="47.30833" lon="-1.55281">
        <ele>30</ele>
        <time>2025-09-23T09:22:12Z</time>
      </trkpt>
      <trkpt lat="47.3081" lon="-1.55278">
        <ele>30</ele>
        <time>2025-09-23T09:22:28Z</time>
      </trkpt>
      <trkpt lat="47.30787" lon="-1.55277">
        <ele>30</ele>
        <time>2025-09-23T09:22:44Z</time>
      </trkpt>
      <trkpt lat="47.30765" lon="-1.55271">
        <ele>30</ele>
        <time>2025-09-23T09:23:00Z</time>
      </trkpt>
      <trkpt lat="47.30742" lon="-1.55266">
        <ele>30.91</ele>
        <time>2025-09-23T09:23:16Z</time>
      </trkpt>
      <trkpt lat="47.30721" lon="-1.55261">
        <ele>31</ele>
        <time>2025-09-23T09:23:36Z</time>
      </trkpt>
      <trkpt lat="47.307" lon="-1.55254">
        <ele>31</ele>
        <time>2025-09-23T09:23:52Z</time>
      </trkpt>
      <trkpt lat="47.30679" lon="-1.55249">
        <ele>30.3</ele>
        <time>2025-09-23T09:24:08Z</time>
      </trkpt>
      <trkpt lat="47.30658" lon="-1.55247">
        <ele>30</ele>
        <time>2025-09-23T09:24:24Z</time>
      </trkpt>
      <trkpt lat="47.30638" lon="-1.55242">
        <ele>30</ele>
        <time>2025-09-23T09:24:40Z</time>
      </trkpt>
      <trkpt lat="47.30618" lon="-1.55234">
        <ele>30</ele>
        <time>2025-09-23T09:24:56Z</time>
      </trkpt>
      <trkpt lat="47.30599" lon="-1.55223">
        <ele>30</ele>
        <time>2025-09-23T09:25:12Z</time>
      </trkpt>
      <trkpt lat="47.30583" lon="-1.55209">
        <ele>27.9</ele>
        <time>2025-09-23T09:25:28Z</time>
      </trkpt>
      <trkpt lat="47.30566" lon="-1.55196">
        <ele>27.01</ele>
        <time>2025-09-23T09:25:44Z</time>
      </trkpt>
      <trkpt lat="47.30548" lon="-1.55183">
        <ele>27</ele>
        <time>2025-09-23T09:26:00Z</time>
      </trkpt>
      <trkpt lat="47.30531" lon="-1.55172">
        <ele>27</ele>
        <time>2025-09-23T09:26:12Z</time>
      </trkpt>
      <trkpt lat="47.30513" lon="-1.55165">
        <ele>27</ele>
        <time>2025-09-23T09:26:24Z</time>
      </trkpt>
      <trkpt lat="47.30491" lon="-1.5516">
        <ele>25.18</ele>
        <time>2025-09-23T09:26:40Z</time>
      </trkpt>
      <trkpt lat="47.3047" lon="-1.55158">
        <ele>25</ele>
        <time>2025-09-23T09:26:56Z</time>
      </trkpt>
      <trkpt lat="47.30452" lon="-1.55153">
        <ele>25</ele>
        <time>2025-09-23T09:27:12Z</time>
      </trkpt>
      <trkpt lat="47.30432" lon="-1.55151">
        <ele>25</ele>
        <time>2025-09-23T09:27:28Z</time>
      </trkpt>
      <trkpt lat="47.30409" lon="-1.55153">
        <ele>23.18</ele>
        <time>2025-09-23T09:27:44Z</time>
      </trkpt>
      <trkpt lat="47.30394" lon="-1.55169">
        <ele>24.4</ele>
        <time>2025-09-23T09:27:56Z</time>
      </trkpt>
      <trkpt lat="47.30399" lon="-1.55202">
        <ele>25</ele>
        <time>2025-09-23T09:28:12Z</time>
      </trkpt>
      <trkpt lat="47.30402" lon="-1.55233">
        <ele>25</ele>
        <time>2025-09-23T09:28:28Z</time>
      </trkpt>
      <trkpt lat="47.3041" lon="-1.55263">
        <ele>25</ele>
        <time>2025-09-23T09:28:44Z</time>
      </trkpt>
      <trkpt lat="47.30415" lon="-1.55289">
        <ele>25</ele>
        <time>2025-09-23T09:29:00Z</time>
      </trkpt>
      <trkpt lat="47.30411" lon="-1.5532">
        <ele>25</ele>
        <time>2025-09-23T09:29:16Z</time>
      </trkpt>
      <trkpt lat="47.30412" lon="-1.55349">
        <ele>26.95</ele>
        <time>2025-09-23T09:29:32Z</time>
      </trkpt>
      <trkpt lat="47.30417" lon="-1.55376">
        <ele>26.3</ele>
        <time>2025-09-23T09:29:48Z</time>
      </trkpt>
      <trkpt lat="47.30426" lon="-1.55399">
        <ele>26.01</ele>
        <time>2025-09-23T09:30:00Z</time>
      </trkpt>
      <trkpt lat="47.30442" lon="-1.5542">
        <ele>28.1</ele>
        <time>2025-09-23T09:30:16Z</time>
      </trkpt>
      <trkpt lat="47.3046" lon="-1.55434">
        <ele>28.99</ele>
        <time>2025-09-23T09:30:32Z</time>
      </trkpt>
      <trkpt lat="47.30479" lon="-1.55447">
        <ele>29</ele>
        <time>2025-09-23T09:30:48Z</time>
      </trkpt>
      <trkpt lat="47.30495" lon="-1.55462">
        <ele>29</ele>
        <time>2025-09-23T09:31:04Z</time>
      </trkpt>
      <trkpt lat="47.30494" lon="-1.55491">
        <ele>29</ele>
        <time>2025-09-23T09:31:20Z</time>
      </trkpt>
      <trkpt lat="47.30496" lon="-1.55523">
        <ele>28.03</ele>
        <time>2025-09-23T09:31:36Z</time>
      </trkpt>
      <trkpt lat="47.30501" lon="-1.55552">
        <ele>27.3</ele>
        <time>2025-09-23T09:31:52Z</time>
      </trkpt>
      <trkpt lat="47.30509" lon="-1.55578">
        <ele>27</ele>
        <time>2025-09-23T09:32:08Z</time>
      </trkpt>
      <trkpt lat="47.30505" lon="-1.55607">
        <ele>27</ele>
        <time>2025-09-23T09:33:12Z</time>
      </trkpt>
      <trkpt lat="47.30493" lon="-1.55631">
        <ele>27.99</ele>
        <time>2025-09-23T09:33:32Z</time>
      </trkpt>
      <trkpt lat="47.30502" lon="-1.55659">
        <ele>27.3</ele>
        <time>2025-09-23T09:33:48Z</time>
      </trkpt>
      <trkpt lat="47.3051" lon="-1.55688">
        <ele>27.98</ele>
        <time>2025-09-23T09:34:04Z</time>
      </trkpt>
      <trkpt lat="47.30519" lon="-1.55718">
        <ele>28</ele>
        <time>2025-09-23T09:34:20Z</time>
      </trkpt>
      <trkpt lat="47.30523" lon="-1.55746">
        <ele>28</ele>
        <time>2025-09-23T09:34:36Z</time>
      </trkpt>
      <trkpt lat="47.30529" lon="-1.55775">
        <ele>29.98</ele>
        <time>2025-09-23T09:34:52Z</time>
      </trkpt>
      <trkpt lat="47.30541" lon="-1.55799">
        <ele>30</ele>
        <time>2025-09-23T09:35:08Z</time>
      </trkpt>
      <trkpt lat="47.30544" lon="-1.55828">
        <ele>30</ele>
        <time>2025-09-23T09:35:28Z</time>
      </trkpt>
      <trkpt lat="47.30558" lon="-1.55849">
        <ele>30</ele>
        <time>2025-09-23T09:35:48Z</time>
      </trkpt>
      <trkpt lat="47.30568" lon="-1.55876">
        <ele>30</ele>
        <time>2025-09-23T09:38:04Z</time>
      </trkpt>
    </trkseg>
  </trk>
</gpx>